<?xml version="1.0" encoding="UTF-8" standalone="no" ?>
<gpx xmlns="http://www.topografix.com/GPX/1/1" xmlns:xsi="http://www.w3.org/2001/XMLSchema-instance" xsi:schemaLocation="http://www.topografix.com/GPX/1/1 http://www.topografix.com/GPX/1/1/gpx.xsd" version="1.1" creator="VisuGPX - https://www.visugpx.com">
  <metadata>
    <name>MONTFERRAT BEAUVOIR</name>
    <desc><![CDATA[Randonnée au départ du stade Montferrat vers Notre dame de Beauvoir, petit tour par le Plan et retour au village par le chateau de Beaudron.]]></desc>
  </metadata>
  <trk>
    <name><![CDATA[Tracé actuel: 18 OCT 2016 13:58]]></name>
    <trkseg>
      <trkpt lat="43.61188" lon="6.48207">
        <ele>401.01</ele>
        <time>2016-10-18T11:58:21Z</time>
      </trkpt>
      <trkpt lat="43.61189" lon="6.48206">
        <ele>400.05</ele>
        <time>2016-10-18T11:58:22Z</time>
      </trkpt>
      <trkpt lat="43.61189" lon="6.48205">
        <ele>404.85</ele>
        <time>2016-10-18T11:58:23Z</time>
      </trkpt>
      <trkpt lat="43.6119" lon="6.48182">
        <ele>402.93</ele>
        <time>2016-10-18T11:58:35Z</time>
      </trkpt>
      <trkpt lat="43.61192" lon="6.48183">
        <ele>402.93</ele>
        <time>2016-10-18T11:58:38Z</time>
      </trkpt>
      <trkpt lat="43.61194" lon="6.48178">
        <ele>403.41</ele>
        <time>2016-10-18T11:58:45Z</time>
      </trkpt>
      <trkpt lat="43.61195" lon="6.48175">
        <ele>403.41</ele>
        <time>2016-10-18T11:58:47Z</time>
      </trkpt>
      <trkpt lat="43.61196" lon="6.48172">
        <ele>403.41</ele>
        <time>2016-10-18T11:58:50Z</time>
      </trkpt>
      <trkpt lat="43.61197" lon="6.48171">
        <ele>403.41</ele>
        <time>2016-10-18T11:58:51Z</time>
      </trkpt>
      <trkpt lat="43.61198" lon="6.48169">
        <ele>403.89</ele>
        <time>2016-10-18T11:59:02Z</time>
      </trkpt>
      <trkpt lat="43.61209" lon="6.48165">
        <ele>404.85</ele>
        <time>2016-10-18T11:59:16Z</time>
      </trkpt>
      <trkpt lat="43.61216" lon="6.48164">
        <ele>405.33</ele>
        <time>2016-10-18T11:59:29Z</time>
      </trkpt>
      <trkpt lat="43.61229" lon="6.48165">
        <ele>406.29</ele>
        <time>2016-10-18T11:59:43Z</time>
      </trkpt>
      <trkpt lat="43.6123" lon="6.48164">
        <ele>406.29</ele>
        <time>2016-10-18T11:59:44Z</time>
      </trkpt>
      <trkpt lat="43.61241" lon="6.4816">
        <ele>406.77</ele>
        <time>2016-10-18T11:59:55Z</time>
      </trkpt>
      <trkpt lat="43.61248" lon="6.48157">
        <ele>408.7</ele>
        <time>2016-10-18T12:00:11Z</time>
      </trkpt>
      <trkpt lat="43.61255" lon="6.48175">
        <ele>411.58</ele>
        <time>2016-10-18T12:00:30Z</time>
      </trkpt>
      <trkpt lat="43.61262" lon="6.48178">
        <ele>413.5</ele>
        <time>2016-10-18T12:00:45Z</time>
      </trkpt>
      <trkpt lat="43.61267" lon="6.48183">
        <ele>415.43</ele>
        <time>2016-10-18T12:00:59Z</time>
      </trkpt>
      <trkpt lat="43.61269" lon="6.48192">
        <ele>418.79</ele>
        <time>2016-10-18T12:01:07Z</time>
      </trkpt>
      <trkpt lat="43.61272" lon="6.48195">
        <ele>422.64</ele>
        <time>2016-10-18T12:01:12Z</time>
      </trkpt>
      <trkpt lat="43.61274" lon="6.48199">
        <ele>426</ele>
        <time>2016-10-18T12:01:18Z</time>
      </trkpt>
      <trkpt lat="43.61274" lon="6.48199">
        <ele>427.92</ele>
        <time>2016-10-18T12:01:20Z</time>
      </trkpt>
      <trkpt lat="43.61276" lon="6.48206">
        <ele>430.81</ele>
        <time>2016-10-18T12:01:28Z</time>
      </trkpt>
      <trkpt lat="43.61276" lon="6.48213">
        <ele>434.17</ele>
        <time>2016-10-18T12:01:36Z</time>
      </trkpt>
      <trkpt lat="43.61278" lon="6.48219">
        <ele>437.06</ele>
        <time>2016-10-18T12:01:44Z</time>
      </trkpt>
      <trkpt lat="43.61278" lon="6.4822">
        <ele>438.02</ele>
        <time>2016-10-18T12:01:45Z</time>
      </trkpt>
      <trkpt lat="43.61275" lon="6.4823">
        <ele>441.38</ele>
        <time>2016-10-18T12:01:55Z</time>
      </trkpt>
      <trkpt lat="43.61275" lon="6.48239">
        <ele>443.79</ele>
        <time>2016-10-18T12:02:05Z</time>
      </trkpt>
      <trkpt lat="43.61273" lon="6.48258">
        <ele>445.23</ele>
        <time>2016-10-18T12:02:21Z</time>
      </trkpt>
      <trkpt lat="43.61272" lon="6.48264">
        <ele>445.23</ele>
        <time>2016-10-18T12:02:26Z</time>
      </trkpt>
      <trkpt lat="43.61269" lon="6.48278">
        <ele>445.71</ele>
        <time>2016-10-18T12:02:39Z</time>
      </trkpt>
      <trkpt lat="43.61274" lon="6.48296">
        <ele>447.15</ele>
        <time>2016-10-18T12:02:53Z</time>
      </trkpt>
      <trkpt lat="43.61277" lon="6.48293">
        <ele>447.63</ele>
        <time>2016-10-18T12:02:56Z</time>
      </trkpt>
      <trkpt lat="43.61288" lon="6.48298">
        <ele>448.59</ele>
        <time>2016-10-18T12:03:09Z</time>
      </trkpt>
      <trkpt lat="43.61289" lon="6.48299">
        <ele>450.03</ele>
        <time>2016-10-18T12:03:22Z</time>
      </trkpt>
      <trkpt lat="43.61292" lon="6.483">
        <ele>451</ele>
        <time>2016-10-18T12:03:27Z</time>
      </trkpt>
      <trkpt lat="43.61297" lon="6.48307">
        <ele>451.96</ele>
        <time>2016-10-18T12:03:37Z</time>
      </trkpt>
      <trkpt lat="43.61305" lon="6.48313">
        <ele>454.36</ele>
        <time>2016-10-18T12:03:52Z</time>
      </trkpt>
      <trkpt lat="43.61317" lon="6.48326">
        <ele>456.76</ele>
        <time>2016-10-18T12:04:08Z</time>
      </trkpt>
      <trkpt lat="43.61325" lon="6.4833">
        <ele>458.21</ele>
        <time>2016-10-18T12:04:22Z</time>
      </trkpt>
      <trkpt lat="43.61327" lon="6.48329">
        <ele>459.65</ele>
        <time>2016-10-18T12:04:39Z</time>
      </trkpt>
      <trkpt lat="43.61331" lon="6.48328">
        <ele>461.57</ele>
        <time>2016-10-18T12:04:53Z</time>
      </trkpt>
      <trkpt lat="43.61335" lon="6.4833">
        <ele>463.49</ele>
        <time>2016-10-18T12:05:07Z</time>
      </trkpt>
      <trkpt lat="43.61338" lon="6.48333">
        <ele>465.42</ele>
        <time>2016-10-18T12:05:23Z</time>
      </trkpt>
      <trkpt lat="43.61337" lon="6.48334">
        <ele>465.42</ele>
        <time>2016-10-18T12:05:26Z</time>
      </trkpt>
      <trkpt lat="43.61343" lon="6.48334">
        <ele>467.34</ele>
        <time>2016-10-18T12:05:37Z</time>
      </trkpt>
      <trkpt lat="43.61348" lon="6.48335">
        <ele>469.74</ele>
        <time>2016-10-18T12:05:50Z</time>
      </trkpt>
      <trkpt lat="43.61355" lon="6.4834">
        <ele>472.14</ele>
        <time>2016-10-18T12:06:04Z</time>
      </trkpt>
      <trkpt lat="43.61362" lon="6.4834">
        <ele>474.55</ele>
        <time>2016-10-18T12:06:20Z</time>
      </trkpt>
      <trkpt lat="43.61368" lon="6.48342">
        <ele>476.95</ele>
        <time>2016-10-18T12:06:36Z</time>
      </trkpt>
      <trkpt lat="43.61369" lon="6.4834">
        <ele>477.91</ele>
        <time>2016-10-18T12:06:56Z</time>
      </trkpt>
      <trkpt lat="43.61374" lon="6.48339">
        <ele>479.35</ele>
        <time>2016-10-18T12:07:12Z</time>
      </trkpt>
      <trkpt lat="43.61379" lon="6.48338">
        <ele>481.28</ele>
        <time>2016-10-18T12:07:22Z</time>
      </trkpt>
      <trkpt lat="43.61382" lon="6.48335">
        <ele>482.72</ele>
        <time>2016-10-18T12:07:34Z</time>
      </trkpt>
      <trkpt lat="43.61388" lon="6.48333">
        <ele>485.12</ele>
        <time>2016-10-18T12:07:46Z</time>
      </trkpt>
      <trkpt lat="43.61395" lon="6.48333">
        <ele>487.05</ele>
        <time>2016-10-18T12:07:59Z</time>
      </trkpt>
      <trkpt lat="43.614" lon="6.48331">
        <ele>488.49</ele>
        <time>2016-10-18T12:08:11Z</time>
      </trkpt>
      <trkpt lat="43.61408" lon="6.48331">
        <ele>490.89</ele>
        <time>2016-10-18T12:08:26Z</time>
      </trkpt>
      <trkpt lat="43.61415" lon="6.48327">
        <ele>492.81</ele>
        <time>2016-10-18T12:08:41Z</time>
      </trkpt>
      <trkpt lat="43.61416" lon="6.48327">
        <ele>494.26</ele>
        <time>2016-10-18T12:08:55Z</time>
      </trkpt>
      <trkpt lat="43.61416" lon="6.48327">
        <ele>494.74</ele>
        <time>2016-10-18T12:09:15Z</time>
      </trkpt>
      <trkpt lat="43.61418" lon="6.48327">
        <ele>495.22</ele>
        <time>2016-10-18T12:09:40Z</time>
      </trkpt>
      <trkpt lat="43.61419" lon="6.48327">
        <ele>495.7</ele>
        <time>2016-10-18T12:10:01Z</time>
      </trkpt>
      <trkpt lat="43.61419" lon="6.48326">
        <ele>496.66</ele>
        <time>2016-10-18T12:10:24Z</time>
      </trkpt>
      <trkpt lat="43.61419" lon="6.48325">
        <ele>497.14</ele>
        <time>2016-10-18T12:10:43Z</time>
      </trkpt>
      <trkpt lat="43.61419" lon="6.48325">
        <ele>497.14</ele>
        <time>2016-10-18T12:10:52Z</time>
      </trkpt>
      <trkpt lat="43.61416" lon="6.48326">
        <ele>497.14</ele>
        <time>2016-10-18T12:11:06Z</time>
      </trkpt>
      <trkpt lat="43.61416" lon="6.48326">
        <ele>497.62</ele>
        <time>2016-10-18T12:11:25Z</time>
      </trkpt>
      <trkpt lat="43.61419" lon="6.48326">
        <ele>498.58</ele>
        <time>2016-10-18T12:11:37Z</time>
      </trkpt>
      <trkpt lat="43.6142" lon="6.48325">
        <ele>499.06</ele>
        <time>2016-10-18T12:11:53Z</time>
      </trkpt>
      <trkpt lat="43.6142" lon="6.48323">
        <ele>499.06</ele>
        <time>2016-10-18T12:12:06Z</time>
      </trkpt>
      <trkpt lat="43.61419" lon="6.48322">
        <ele>499.54</ele>
        <time>2016-10-18T12:12:21Z</time>
      </trkpt>
      <trkpt lat="43.61419" lon="6.48322">
        <ele>500.02</ele>
        <time>2016-10-18T12:12:42Z</time>
      </trkpt>
      <trkpt lat="43.61424" lon="6.48324">
        <ele>500.02</ele>
        <time>2016-10-18T12:12:56Z</time>
      </trkpt>
      <trkpt lat="43.61434" lon="6.48322">
        <ele>500.02</ele>
        <time>2016-10-18T12:13:09Z</time>
      </trkpt>
      <trkpt lat="43.61442" lon="6.48317">
        <ele>500.5</ele>
        <time>2016-10-18T12:13:27Z</time>
      </trkpt>
      <trkpt lat="43.61451" lon="6.48318">
        <ele>500.98</ele>
        <time>2016-10-18T12:13:42Z</time>
      </trkpt>
      <trkpt lat="43.61461" lon="6.48319">
        <ele>501.46</ele>
        <time>2016-10-18T12:13:56Z</time>
      </trkpt>
      <trkpt lat="43.6147" lon="6.48321">
        <ele>502.43</ele>
        <time>2016-10-18T12:14:08Z</time>
      </trkpt>
      <trkpt lat="43.61478" lon="6.48323">
        <ele>503.39</ele>
        <time>2016-10-18T12:14:20Z</time>
      </trkpt>
      <trkpt lat="43.61484" lon="6.48321">
        <ele>504.35</ele>
        <time>2016-10-18T12:14:32Z</time>
      </trkpt>
      <trkpt lat="43.61494" lon="6.4832">
        <ele>506.27</ele>
        <time>2016-10-18T12:14:49Z</time>
      </trkpt>
      <trkpt lat="43.61499" lon="6.48319">
        <ele>507.71</ele>
        <time>2016-10-18T12:15:02Z</time>
      </trkpt>
      <trkpt lat="43.61505" lon="6.48319">
        <ele>509.64</ele>
        <time>2016-10-18T12:15:15Z</time>
      </trkpt>
      <trkpt lat="43.61512" lon="6.4832">
        <ele>511.08</ele>
        <time>2016-10-18T12:15:29Z</time>
      </trkpt>
      <trkpt lat="43.61517" lon="6.48319">
        <ele>512.52</ele>
        <time>2016-10-18T12:15:45Z</time>
      </trkpt>
      <trkpt lat="43.61522" lon="6.48317">
        <ele>514.44</ele>
        <time>2016-10-18T12:15:58Z</time>
      </trkpt>
      <trkpt lat="43.61529" lon="6.48317">
        <ele>516.37</ele>
        <time>2016-10-18T12:16:11Z</time>
      </trkpt>
      <trkpt lat="43.61535" lon="6.48317">
        <ele>517.81</ele>
        <time>2016-10-18T12:16:27Z</time>
      </trkpt>
      <trkpt lat="43.6154" lon="6.48316">
        <ele>519.73</ele>
        <time>2016-10-18T12:16:40Z</time>
      </trkpt>
      <trkpt lat="43.61543" lon="6.48317">
        <ele>520.69</ele>
        <time>2016-10-18T12:16:57Z</time>
      </trkpt>
      <trkpt lat="43.61544" lon="6.48317">
        <ele>521.65</ele>
        <time>2016-10-18T12:17:16Z</time>
      </trkpt>
      <trkpt lat="43.61547" lon="6.48318">
        <ele>523.09</ele>
        <time>2016-10-18T12:17:29Z</time>
      </trkpt>
      <trkpt lat="43.61549" lon="6.48319">
        <ele>525.02</ele>
        <time>2016-10-18T12:17:44Z</time>
      </trkpt>
      <trkpt lat="43.6155" lon="6.48319">
        <ele>525.5</ele>
        <time>2016-10-18T12:17:58Z</time>
      </trkpt>
      <trkpt lat="43.61551" lon="6.48319">
        <ele>525.98</ele>
        <time>2016-10-18T12:18:18Z</time>
      </trkpt>
      <trkpt lat="43.61552" lon="6.48319">
        <ele>527.42</ele>
        <time>2016-10-18T12:18:32Z</time>
      </trkpt>
      <trkpt lat="43.61553" lon="6.48318">
        <ele>529.34</ele>
        <time>2016-10-18T12:18:49Z</time>
      </trkpt>
      <trkpt lat="43.61554" lon="6.48318">
        <ele>531.27</ele>
        <time>2016-10-18T12:19:03Z</time>
      </trkpt>
      <trkpt lat="43.61555" lon="6.4832">
        <ele>532.71</ele>
        <time>2016-10-18T12:19:17Z</time>
      </trkpt>
      <trkpt lat="43.6156" lon="6.48324">
        <ele>533.67</ele>
        <time>2016-10-18T12:19:32Z</time>
      </trkpt>
      <trkpt lat="43.61568" lon="6.48329">
        <ele>535.59</ele>
        <time>2016-10-18T12:19:45Z</time>
      </trkpt>
      <trkpt lat="43.61572" lon="6.48335">
        <ele>537.03</ele>
        <time>2016-10-18T12:20:02Z</time>
      </trkpt>
      <trkpt lat="43.61576" lon="6.48338">
        <ele>538.48</ele>
        <time>2016-10-18T12:20:20Z</time>
      </trkpt>
      <trkpt lat="43.61578" lon="6.48338">
        <ele>540.4</ele>
        <time>2016-10-18T12:20:36Z</time>
      </trkpt>
      <trkpt lat="43.6158" lon="6.48339">
        <ele>543.28</ele>
        <time>2016-10-18T12:20:55Z</time>
      </trkpt>
      <trkpt lat="43.61582" lon="6.48339">
        <ele>545.2</ele>
        <time>2016-10-18T12:21:13Z</time>
      </trkpt>
      <trkpt lat="43.61589" lon="6.48347">
        <ele>547.13</ele>
        <time>2016-10-18T12:21:27Z</time>
      </trkpt>
      <trkpt lat="43.61596" lon="6.48349">
        <ele>548.57</ele>
        <time>2016-10-18T12:21:43Z</time>
      </trkpt>
      <trkpt lat="43.61603" lon="6.48348">
        <ele>549.05</ele>
        <time>2016-10-18T12:22:03Z</time>
      </trkpt>
      <trkpt lat="43.61604" lon="6.48347">
        <ele>550.97</ele>
        <time>2016-10-18T12:22:16Z</time>
      </trkpt>
      <trkpt lat="43.61608" lon="6.48346">
        <ele>551.93</ele>
        <time>2016-10-18T12:22:32Z</time>
      </trkpt>
      <trkpt lat="43.61612" lon="6.48345">
        <ele>553.38</ele>
        <time>2016-10-18T12:22:45Z</time>
      </trkpt>
      <trkpt lat="43.6162" lon="6.48341">
        <ele>555.3</ele>
        <time>2016-10-18T12:22:59Z</time>
      </trkpt>
      <trkpt lat="43.61624" lon="6.48341">
        <ele>558.18</ele>
        <time>2016-10-18T12:23:16Z</time>
      </trkpt>
      <trkpt lat="43.61632" lon="6.48345">
        <ele>560.11</ele>
        <time>2016-10-18T12:23:31Z</time>
      </trkpt>
      <trkpt lat="43.61638" lon="6.48349">
        <ele>562.03</ele>
        <time>2016-10-18T12:23:41Z</time>
      </trkpt>
      <trkpt lat="43.61641" lon="6.48351">
        <ele>562.99</ele>
        <time>2016-10-18T12:23:45Z</time>
      </trkpt>
      <trkpt lat="43.61647" lon="6.48356">
        <ele>564.43</ele>
        <time>2016-10-18T12:23:49Z</time>
      </trkpt>
      <trkpt lat="43.61651" lon="6.48359">
        <ele>565.87</ele>
        <time>2016-10-18T12:23:52Z</time>
      </trkpt>
      <trkpt lat="43.61665" lon="6.48361">
        <ele>567.8</ele>
        <time>2016-10-18T12:23:59Z</time>
      </trkpt>
      <trkpt lat="43.6167" lon="6.48363">
        <ele>569.24</ele>
        <time>2016-10-18T12:24:03Z</time>
      </trkpt>
      <trkpt lat="43.61665" lon="6.48363">
        <ele>568.76</ele>
        <time>2016-10-18T12:24:07Z</time>
      </trkpt>
      <trkpt lat="43.61653" lon="6.48358">
        <ele>565.39</ele>
        <time>2016-10-18T12:24:16Z</time>
      </trkpt>
      <trkpt lat="43.61651" lon="6.48355">
        <ele>564.43</ele>
        <time>2016-10-18T12:24:19Z</time>
      </trkpt>
      <trkpt lat="43.61649" lon="6.48353">
        <ele>563.47</ele>
        <time>2016-10-18T12:24:21Z</time>
      </trkpt>
      <trkpt lat="43.61639" lon="6.48346">
        <ele>561.07</ele>
        <time>2016-10-18T12:24:34Z</time>
      </trkpt>
      <trkpt lat="43.61633" lon="6.48342">
        <ele>559.14</ele>
        <time>2016-10-18T12:24:49Z</time>
      </trkpt>
      <trkpt lat="43.61627" lon="6.48342">
        <ele>557.7</ele>
        <time>2016-10-18T12:25:03Z</time>
      </trkpt>
      <trkpt lat="43.61628" lon="6.48343">
        <ele>559.14</ele>
        <time>2016-10-18T12:25:18Z</time>
      </trkpt>
      <trkpt lat="43.61633" lon="6.48347">
        <ele>561.55</ele>
        <time>2016-10-18T12:25:33Z</time>
      </trkpt>
      <trkpt lat="43.61639" lon="6.4835">
        <ele>563.95</ele>
        <time>2016-10-18T12:25:51Z</time>
      </trkpt>
      <trkpt lat="43.61645" lon="6.48354">
        <ele>565.87</ele>
        <time>2016-10-18T12:26:07Z</time>
      </trkpt>
      <trkpt lat="43.61651" lon="6.48362">
        <ele>567.32</ele>
        <time>2016-10-18T12:26:19Z</time>
      </trkpt>
      <trkpt lat="43.61659" lon="6.48366">
        <ele>569.72</ele>
        <time>2016-10-18T12:26:35Z</time>
      </trkpt>
      <trkpt lat="43.61666" lon="6.48366">
        <ele>571.64</ele>
        <time>2016-10-18T12:26:52Z</time>
      </trkpt>
      <trkpt lat="43.6167" lon="6.48368">
        <ele>573.08</ele>
        <time>2016-10-18T12:27:07Z</time>
      </trkpt>
      <trkpt lat="43.61675" lon="6.48369">
        <ele>574.53</ele>
        <time>2016-10-18T12:27:21Z</time>
      </trkpt>
      <trkpt lat="43.6168" lon="6.4837">
        <ele>578.37</ele>
        <time>2016-10-18T12:27:35Z</time>
      </trkpt>
      <trkpt lat="43.61681" lon="6.4837">
        <ele>572.6</ele>
        <time>2016-10-18T12:27:47Z</time>
      </trkpt>
      <trkpt lat="43.61681" lon="6.4837">
        <ele>576.45</ele>
        <time>2016-10-18T12:27:49Z</time>
      </trkpt>
      <trkpt lat="43.61681" lon="6.4837">
        <ele>576.45</ele>
        <time>2016-10-18T12:27:50Z</time>
      </trkpt>
      <trkpt lat="43.6168" lon="6.48371">
        <ele>575.97</ele>
        <time>2016-10-18T12:28:06Z</time>
      </trkpt>
      <trkpt lat="43.61681" lon="6.48372">
        <ele>575.97</ele>
        <time>2016-10-18T12:28:40Z</time>
      </trkpt>
      <trkpt lat="43.61682" lon="6.4837">
        <ele>576.45</ele>
        <time>2016-10-18T12:29:06Z</time>
      </trkpt>
      <trkpt lat="43.61682" lon="6.48369">
        <ele>576.93</ele>
        <time>2016-10-18T12:29:27Z</time>
      </trkpt>
      <trkpt lat="43.61683" lon="6.48369">
        <ele>576.93</ele>
        <time>2016-10-18T12:29:49Z</time>
      </trkpt>
      <trkpt lat="43.61682" lon="6.48368">
        <ele>577.41</ele>
        <time>2016-10-18T12:30:22Z</time>
      </trkpt>
      <trkpt lat="43.61682" lon="6.48368">
        <ele>577.41</ele>
        <time>2016-10-18T12:30:41Z</time>
      </trkpt>
      <trkpt lat="43.61681" lon="6.48367">
        <ele>577.89</ele>
        <time>2016-10-18T12:31:03Z</time>
      </trkpt>
      <trkpt lat="43.61683" lon="6.48369">
        <ele>578.37</ele>
        <time>2016-10-18T12:31:15Z</time>
      </trkpt>
      <trkpt lat="43.61688" lon="6.48376">
        <ele>579.81</ele>
        <time>2016-10-18T12:31:34Z</time>
      </trkpt>
      <trkpt lat="43.61694" lon="6.48377">
        <ele>581.25</ele>
        <time>2016-10-18T12:31:51Z</time>
      </trkpt>
      <trkpt lat="43.617" lon="6.48384">
        <ele>582.7</ele>
        <time>2016-10-18T12:32:05Z</time>
      </trkpt>
      <trkpt lat="43.61704" lon="6.48383">
        <ele>584.14</ele>
        <time>2016-10-18T12:32:20Z</time>
      </trkpt>
      <trkpt lat="43.61711" lon="6.48387">
        <ele>586.06</ele>
        <time>2016-10-18T12:32:34Z</time>
      </trkpt>
      <trkpt lat="43.61713" lon="6.48387">
        <ele>587.5</ele>
        <time>2016-10-18T12:32:44Z</time>
      </trkpt>
      <trkpt lat="43.61719" lon="6.48387">
        <ele>588.95</ele>
        <time>2016-10-18T12:32:58Z</time>
      </trkpt>
      <trkpt lat="43.61727" lon="6.48392">
        <ele>590.87</ele>
        <time>2016-10-18T12:33:12Z</time>
      </trkpt>
      <trkpt lat="43.61731" lon="6.48391">
        <ele>592.31</ele>
        <time>2016-10-18T12:33:28Z</time>
      </trkpt>
      <trkpt lat="43.61735" lon="6.48391">
        <ele>594.23</ele>
        <time>2016-10-18T12:33:42Z</time>
      </trkpt>
      <trkpt lat="43.61737" lon="6.48394">
        <ele>595.67</ele>
        <time>2016-10-18T12:34:00Z</time>
      </trkpt>
      <trkpt lat="43.61742" lon="6.48398">
        <ele>596.64</ele>
        <time>2016-10-18T12:34:15Z</time>
      </trkpt>
      <trkpt lat="43.61751" lon="6.48403">
        <ele>598.56</ele>
        <time>2016-10-18T12:34:30Z</time>
      </trkpt>
      <trkpt lat="43.61753" lon="6.48402">
        <ele>600.96</ele>
        <time>2016-10-18T12:34:50Z</time>
      </trkpt>
      <trkpt lat="43.61756" lon="6.48401">
        <ele>601.92</ele>
        <time>2016-10-18T12:35:08Z</time>
      </trkpt>
      <trkpt lat="43.61764" lon="6.48396">
        <ele>604.33</ele>
        <time>2016-10-18T12:35:26Z</time>
      </trkpt>
      <trkpt lat="43.61769" lon="6.48393">
        <ele>606.73</ele>
        <time>2016-10-18T12:35:45Z</time>
      </trkpt>
      <trkpt lat="43.61775" lon="6.48388">
        <ele>608.17</ele>
        <time>2016-10-18T12:36:03Z</time>
      </trkpt>
      <trkpt lat="43.6178" lon="6.48387">
        <ele>609.61</ele>
        <time>2016-10-18T12:36:16Z</time>
      </trkpt>
      <trkpt lat="43.61782" lon="6.48388">
        <ele>612.02</ele>
        <time>2016-10-18T12:36:35Z</time>
      </trkpt>
      <trkpt lat="43.61784" lon="6.48392">
        <ele>612.98</ele>
        <time>2016-10-18T12:36:57Z</time>
      </trkpt>
      <trkpt lat="43.61789" lon="6.48391">
        <ele>614.42</ele>
        <time>2016-10-18T12:37:12Z</time>
      </trkpt>
      <trkpt lat="43.61792" lon="6.48393">
        <ele>616.34</ele>
        <time>2016-10-18T12:37:28Z</time>
      </trkpt>
      <trkpt lat="43.61792" lon="6.48396">
        <ele>617.78</ele>
        <time>2016-10-18T12:37:44Z</time>
      </trkpt>
      <trkpt lat="43.61793" lon="6.48399">
        <ele>619.23</ele>
        <time>2016-10-18T12:38:07Z</time>
      </trkpt>
      <trkpt lat="43.61795" lon="6.48405">
        <ele>621.15</ele>
        <time>2016-10-18T12:38:23Z</time>
      </trkpt>
      <trkpt lat="43.61797" lon="6.48414">
        <ele>623.07</ele>
        <time>2016-10-18T12:38:45Z</time>
      </trkpt>
      <trkpt lat="43.61803" lon="6.48425">
        <ele>624.51</ele>
        <time>2016-10-18T12:38:50Z</time>
      </trkpt>
      <trkpt lat="43.61804" lon="6.48427">
        <ele>627.88</ele>
        <time>2016-10-18T12:39:02Z</time>
      </trkpt>
      <trkpt lat="43.61805" lon="6.48429">
        <ele>625.96</ele>
        <time>2016-10-18T12:39:30Z</time>
      </trkpt>
      <trkpt lat="43.61805" lon="6.4843">
        <ele>626.44</ele>
        <time>2016-10-18T12:39:54Z</time>
      </trkpt>
      <trkpt lat="43.61805" lon="6.4843">
        <ele>622.59</ele>
        <time>2016-10-18T12:40:02Z</time>
      </trkpt>
      <trkpt lat="43.61805" lon="6.4843">
        <ele>628.84</ele>
        <time>2016-10-18T12:40:03Z</time>
      </trkpt>
      <trkpt lat="43.61805" lon="6.4843">
        <ele>628.36</ele>
        <time>2016-10-18T12:40:04Z</time>
      </trkpt>
      <trkpt lat="43.61805" lon="6.4843">
        <ele>626.44</ele>
        <time>2016-10-18T12:40:06Z</time>
      </trkpt>
      <trkpt lat="43.61804" lon="6.4843">
        <ele>626.92</ele>
        <time>2016-10-18T12:40:28Z</time>
      </trkpt>
      <trkpt lat="43.61804" lon="6.4843">
        <ele>626.92</ele>
        <time>2016-10-18T12:40:51Z</time>
      </trkpt>
      <trkpt lat="43.61803" lon="6.4843">
        <ele>626.44</ele>
        <time>2016-10-18T12:41:10Z</time>
      </trkpt>
      <trkpt lat="43.618" lon="6.48424">
        <ele>624.51</ele>
        <time>2016-10-18T12:41:22Z</time>
      </trkpt>
      <trkpt lat="43.618" lon="6.48422">
        <ele>624.99</ele>
        <time>2016-10-18T12:41:46Z</time>
      </trkpt>
      <trkpt lat="43.618" lon="6.48423">
        <ele>624.99</ele>
        <time>2016-10-18T12:42:21Z</time>
      </trkpt>
      <trkpt lat="43.618" lon="6.48423">
        <ele>625.47</ele>
        <time>2016-10-18T12:42:59Z</time>
      </trkpt>
      <trkpt lat="43.618" lon="6.48423">
        <ele>625.96</ele>
        <time>2016-10-18T12:43:33Z</time>
      </trkpt>
      <trkpt lat="43.618" lon="6.48424">
        <ele>625.96</ele>
        <time>2016-10-18T12:43:51Z</time>
      </trkpt>
      <trkpt lat="43.618" lon="6.48426">
        <ele>627.4</ele>
        <time>2016-10-18T12:44:06Z</time>
      </trkpt>
      <trkpt lat="43.61801" lon="6.4843">
        <ele>628.36</ele>
        <time>2016-10-18T12:44:19Z</time>
      </trkpt>
      <trkpt lat="43.61801" lon="6.4843">
        <ele>629.32</ele>
        <time>2016-10-18T12:44:36Z</time>
      </trkpt>
      <trkpt lat="43.61805" lon="6.48436">
        <ele>631.24</ele>
        <time>2016-10-18T12:44:56Z</time>
      </trkpt>
      <trkpt lat="43.61807" lon="6.48442">
        <ele>633.65</ele>
        <time>2016-10-18T12:45:15Z</time>
      </trkpt>
      <trkpt lat="43.6181" lon="6.48451">
        <ele>635.09</ele>
        <time>2016-10-18T12:45:31Z</time>
      </trkpt>
      <trkpt lat="43.61815" lon="6.4846">
        <ele>637.01</ele>
        <time>2016-10-18T12:45:45Z</time>
      </trkpt>
      <trkpt lat="43.61818" lon="6.48466">
        <ele>637.97</ele>
        <time>2016-10-18T12:45:59Z</time>
      </trkpt>
      <trkpt lat="43.6182" lon="6.4847">
        <ele>638.45</ele>
        <time>2016-10-18T12:46:12Z</time>
      </trkpt>
      <trkpt lat="43.61822" lon="6.48467">
        <ele>639.41</ele>
        <time>2016-10-18T12:46:26Z</time>
      </trkpt>
      <trkpt lat="43.61822" lon="6.48456">
        <ele>641.34</ele>
        <time>2016-10-18T12:46:42Z</time>
      </trkpt>
      <trkpt lat="43.61824" lon="6.48453">
        <ele>642.78</ele>
        <time>2016-10-18T12:47:01Z</time>
      </trkpt>
      <trkpt lat="43.61825" lon="6.48449">
        <ele>644.7</ele>
        <time>2016-10-18T12:47:19Z</time>
      </trkpt>
      <trkpt lat="43.61827" lon="6.48447">
        <ele>645.66</ele>
        <time>2016-10-18T12:47:37Z</time>
      </trkpt>
      <trkpt lat="43.61828" lon="6.48444">
        <ele>647.1</ele>
        <time>2016-10-18T12:47:54Z</time>
      </trkpt>
      <trkpt lat="43.61829" lon="6.48443">
        <ele>648.55</ele>
        <time>2016-10-18T12:48:13Z</time>
      </trkpt>
      <trkpt lat="43.61833" lon="6.48443">
        <ele>650.95</ele>
        <time>2016-10-18T12:48:33Z</time>
      </trkpt>
      <trkpt lat="43.61834" lon="6.48445">
        <ele>652.39</ele>
        <time>2016-10-18T12:48:51Z</time>
      </trkpt>
      <trkpt lat="43.61835" lon="6.48446">
        <ele>652.39</ele>
        <time>2016-10-18T12:49:12Z</time>
      </trkpt>
      <trkpt lat="43.61839" lon="6.48451">
        <ele>654.31</ele>
        <time>2016-10-18T12:49:23Z</time>
      </trkpt>
      <trkpt lat="43.61839" lon="6.48451">
        <ele>654.31</ele>
        <time>2016-10-18T12:49:24Z</time>
      </trkpt>
      <trkpt lat="43.61842" lon="6.48446">
        <ele>655.28</ele>
        <time>2016-10-18T12:49:37Z</time>
      </trkpt>
      <trkpt lat="43.61844" lon="6.48448">
        <ele>656.24</ele>
        <time>2016-10-18T12:49:48Z</time>
      </trkpt>
      <trkpt lat="43.61845" lon="6.4845">
        <ele>657.68</ele>
        <time>2016-10-18T12:50:02Z</time>
      </trkpt>
      <trkpt lat="43.61847" lon="6.48451">
        <ele>658.64</ele>
        <time>2016-10-18T12:50:25Z</time>
      </trkpt>
      <trkpt lat="43.61848" lon="6.48453">
        <ele>660.56</ele>
        <time>2016-10-18T12:50:41Z</time>
      </trkpt>
      <trkpt lat="43.6185" lon="6.48453">
        <ele>662.49</ele>
        <time>2016-10-18T12:50:56Z</time>
      </trkpt>
      <trkpt lat="43.61851" lon="6.48455">
        <ele>663.93</ele>
        <time>2016-10-18T12:51:16Z</time>
      </trkpt>
      <trkpt lat="43.61852" lon="6.48456">
        <ele>664.89</ele>
        <time>2016-10-18T12:51:29Z</time>
      </trkpt>
      <trkpt lat="43.61853" lon="6.48455">
        <ele>665.85</ele>
        <time>2016-10-18T12:51:50Z</time>
      </trkpt>
      <trkpt lat="43.61855" lon="6.48453">
        <ele>666.81</ele>
        <time>2016-10-18T12:52:01Z</time>
      </trkpt>
      <trkpt lat="43.61857" lon="6.48453">
        <ele>667.77</ele>
        <time>2016-10-18T12:52:14Z</time>
      </trkpt>
      <trkpt lat="43.6186" lon="6.48455">
        <ele>668.73</ele>
        <time>2016-10-18T12:52:25Z</time>
      </trkpt>
      <trkpt lat="43.61863" lon="6.48458">
        <ele>669.22</ele>
        <time>2016-10-18T12:52:28Z</time>
      </trkpt>
      <trkpt lat="43.61877" lon="6.48471">
        <ele>670.18</ele>
        <time>2016-10-18T12:52:40Z</time>
      </trkpt>
      <trkpt lat="43.61879" lon="6.48471">
        <ele>670.66</ele>
        <time>2016-10-18T12:52:45Z</time>
      </trkpt>
      <trkpt lat="43.61878" lon="6.48473">
        <ele>670.18</ele>
        <time>2016-10-18T12:52:54Z</time>
      </trkpt>
      <trkpt lat="43.61877" lon="6.48472">
        <ele>670.18</ele>
        <time>2016-10-18T12:53:11Z</time>
      </trkpt>
      <trkpt lat="43.61876" lon="6.48471">
        <ele>670.66</ele>
        <time>2016-10-18T12:53:41Z</time>
      </trkpt>
      <trkpt lat="43.61874" lon="6.48468">
        <ele>670.18</ele>
        <time>2016-10-18T12:53:54Z</time>
      </trkpt>
      <trkpt lat="43.61873" lon="6.48469">
        <ele>670.66</ele>
        <time>2016-10-18T12:54:13Z</time>
      </trkpt>
      <trkpt lat="43.61871" lon="6.4847">
        <ele>670.66</ele>
        <time>2016-10-18T12:54:33Z</time>
      </trkpt>
      <trkpt lat="43.6187" lon="6.48472">
        <ele>670.66</ele>
        <time>2016-10-18T12:54:57Z</time>
      </trkpt>
      <trkpt lat="43.6187" lon="6.48471">
        <ele>670.66</ele>
        <time>2016-10-18T12:55:19Z</time>
      </trkpt>
      <trkpt lat="43.6187" lon="6.4847">
        <ele>671.14</ele>
        <time>2016-10-18T12:55:38Z</time>
      </trkpt>
      <trkpt lat="43.6187" lon="6.4847">
        <ele>671.14</ele>
        <time>2016-10-18T12:56:02Z</time>
      </trkpt>
      <trkpt lat="43.6187" lon="6.4847">
        <ele>671.14</ele>
        <time>2016-10-18T12:56:22Z</time>
      </trkpt>
      <trkpt lat="43.61868" lon="6.4847">
        <ele>671.14</ele>
        <time>2016-10-18T12:56:43Z</time>
      </trkpt>
      <trkpt lat="43.61869" lon="6.48471">
        <ele>671.62</ele>
        <time>2016-10-18T12:57:00Z</time>
      </trkpt>
      <trkpt lat="43.6187" lon="6.48471">
        <ele>671.62</ele>
        <time>2016-10-18T12:57:33Z</time>
      </trkpt>
      <trkpt lat="43.61872" lon="6.48472">
        <ele>672.1</ele>
        <time>2016-10-18T12:57:48Z</time>
      </trkpt>
      <trkpt lat="43.61872" lon="6.48474">
        <ele>672.1</ele>
        <time>2016-10-18T12:58:07Z</time>
      </trkpt>
      <trkpt lat="43.61872" lon="6.48474">
        <ele>672.1</ele>
        <time>2016-10-18T12:58:37Z</time>
      </trkpt>
      <trkpt lat="43.61872" lon="6.48474">
        <ele>672.1</ele>
        <time>2016-10-18T12:58:46Z</time>
      </trkpt>
      <trkpt lat="43.61872" lon="6.48473">
        <ele>672.1</ele>
        <time>2016-10-18T12:59:00Z</time>
      </trkpt>
      <trkpt lat="43.61872" lon="6.4847">
        <ele>672.1</ele>
        <time>2016-10-18T12:59:19Z</time>
      </trkpt>
      <trkpt lat="43.61871" lon="6.48467">
        <ele>672.1</ele>
        <time>2016-10-18T12:59:31Z</time>
      </trkpt>
      <trkpt lat="43.61871" lon="6.48466">
        <ele>672.1</ele>
        <time>2016-10-18T12:59:54Z</time>
      </trkpt>
      <trkpt lat="43.6187" lon="6.48466">
        <ele>672.1</ele>
        <time>2016-10-18T13:00:27Z</time>
      </trkpt>
      <trkpt lat="43.61869" lon="6.48465">
        <ele>672.1</ele>
        <time>2016-10-18T13:00:45Z</time>
      </trkpt>
      <trkpt lat="43.61868" lon="6.48466">
        <ele>672.58</ele>
        <time>2016-10-18T13:01:02Z</time>
      </trkpt>
      <trkpt lat="43.61868" lon="6.48465">
        <ele>672.1</ele>
        <time>2016-10-18T13:01:34Z</time>
      </trkpt>
      <trkpt lat="43.61868" lon="6.48465">
        <ele>672.58</ele>
        <time>2016-10-18T13:02:05Z</time>
      </trkpt>
      <trkpt lat="43.61866" lon="6.48464">
        <ele>672.58</ele>
        <time>2016-10-18T13:02:36Z</time>
      </trkpt>
      <trkpt lat="43.61866" lon="6.48465">
        <ele>672.58</ele>
        <time>2016-10-18T13:03:09Z</time>
      </trkpt>
      <trkpt lat="43.61866" lon="6.48466">
        <ele>672.58</ele>
        <time>2016-10-18T13:03:35Z</time>
      </trkpt>
      <trkpt lat="43.6187" lon="6.48469">
        <ele>673.06</ele>
        <time>2016-10-18T13:03:51Z</time>
      </trkpt>
      <trkpt lat="43.61871" lon="6.48469">
        <ele>673.06</ele>
        <time>2016-10-18T13:04:09Z</time>
      </trkpt>
      <trkpt lat="43.61871" lon="6.48468">
        <ele>673.06</ele>
        <time>2016-10-18T13:04:37Z</time>
      </trkpt>
      <trkpt lat="43.61871" lon="6.48468">
        <ele>673.06</ele>
        <time>2016-10-18T13:05:00Z</time>
      </trkpt>
      <trkpt lat="43.61871" lon="6.48467">
        <ele>673.06</ele>
        <time>2016-10-18T13:05:19Z</time>
      </trkpt>
      <trkpt lat="43.61871" lon="6.48467">
        <ele>673.06</ele>
        <time>2016-10-18T13:05:42Z</time>
      </trkpt>
      <trkpt lat="43.6187" lon="6.48466">
        <ele>673.06</ele>
        <time>2016-10-18T13:05:56Z</time>
      </trkpt>
      <trkpt lat="43.61871" lon="6.48464">
        <ele>673.06</ele>
        <time>2016-10-18T13:06:20Z</time>
      </trkpt>
      <trkpt lat="43.6187" lon="6.48464">
        <ele>673.06</ele>
        <time>2016-10-18T13:06:46Z</time>
      </trkpt>
      <trkpt lat="43.61874" lon="6.48468">
        <ele>673.54</ele>
        <time>2016-10-18T13:07:08Z</time>
      </trkpt>
      <trkpt lat="43.61877" lon="6.48472">
        <ele>674.02</ele>
        <time>2016-10-18T13:07:22Z</time>
      </trkpt>
      <trkpt lat="43.61879" lon="6.48465">
        <ele>675.46</ele>
        <time>2016-10-18T13:07:36Z</time>
      </trkpt>
      <trkpt lat="43.6188" lon="6.48458">
        <ele>677.87</ele>
        <time>2016-10-18T13:07:47Z</time>
      </trkpt>
      <trkpt lat="43.61884" lon="6.48464">
        <ele>678.35</ele>
        <time>2016-10-18T13:08:04Z</time>
      </trkpt>
      <trkpt lat="43.61885" lon="6.48465">
        <ele>678.35</ele>
        <time>2016-10-18T13:08:22Z</time>
      </trkpt>
      <trkpt lat="43.61885" lon="6.48465">
        <ele>678.35</ele>
        <time>2016-10-18T13:08:24Z</time>
      </trkpt>
      <trkpt lat="43.61896" lon="6.48475">
        <ele>678.83</ele>
        <time>2016-10-18T13:08:39Z</time>
      </trkpt>
      <trkpt lat="43.61896" lon="6.48476">
        <ele>678.83</ele>
        <time>2016-10-18T13:08:57Z</time>
      </trkpt>
      <trkpt lat="43.61896" lon="6.48472">
        <ele>678.83</ele>
        <time>2016-10-18T13:09:19Z</time>
      </trkpt>
      <trkpt lat="43.61896" lon="6.48469">
        <ele>679.31</ele>
        <time>2016-10-18T13:09:34Z</time>
      </trkpt>
      <trkpt lat="43.61897" lon="6.48468">
        <ele>679.31</ele>
        <time>2016-10-18T13:09:58Z</time>
      </trkpt>
      <trkpt lat="43.61895" lon="6.48469">
        <ele>679.31</ele>
        <time>2016-10-18T13:10:12Z</time>
      </trkpt>
      <trkpt lat="43.61896" lon="6.48472">
        <ele>679.31</ele>
        <time>2016-10-18T13:10:18Z</time>
      </trkpt>
      <trkpt lat="43.61903" lon="6.48474">
        <ele>677.87</ele>
        <time>2016-10-18T13:10:29Z</time>
      </trkpt>
      <trkpt lat="43.61914" lon="6.48477">
        <ele>676.42</ele>
        <time>2016-10-18T13:10:42Z</time>
      </trkpt>
      <trkpt lat="43.61922" lon="6.4848">
        <ele>675.46</ele>
        <time>2016-10-18T13:10:58Z</time>
      </trkpt>
      <trkpt lat="43.61924" lon="6.48478">
        <ele>675.46</ele>
        <time>2016-10-18T13:11:12Z</time>
      </trkpt>
      <trkpt lat="43.61934" lon="6.48484">
        <ele>674.98</ele>
        <time>2016-10-18T13:11:26Z</time>
      </trkpt>
      <trkpt lat="43.61943" lon="6.48493">
        <ele>675.46</ele>
        <time>2016-10-18T13:11:40Z</time>
      </trkpt>
      <trkpt lat="43.61953" lon="6.48506">
        <ele>674.98</ele>
        <time>2016-10-18T13:11:56Z</time>
      </trkpt>
      <trkpt lat="43.6196" lon="6.48516">
        <ele>673.54</ele>
        <time>2016-10-18T13:12:10Z</time>
      </trkpt>
      <trkpt lat="43.61966" lon="6.48522">
        <ele>672.58</ele>
        <time>2016-10-18T13:12:20Z</time>
      </trkpt>
      <trkpt lat="43.61976" lon="6.48531">
        <ele>673.06</ele>
        <time>2016-10-18T13:12:36Z</time>
      </trkpt>
      <trkpt lat="43.61985" lon="6.48536">
        <ele>673.54</ele>
        <time>2016-10-18T13:12:48Z</time>
      </trkpt>
      <trkpt lat="43.61986" lon="6.48537">
        <ele>673.54</ele>
        <time>2016-10-18T13:12:50Z</time>
      </trkpt>
      <trkpt lat="43.61991" lon="6.48541">
        <ele>674.02</ele>
        <time>2016-10-18T13:12:56Z</time>
      </trkpt>
      <trkpt lat="43.61993" lon="6.48542">
        <ele>673.54</ele>
        <time>2016-10-18T13:12:58Z</time>
      </trkpt>
      <trkpt lat="43.62003" lon="6.48552">
        <ele>674.02</ele>
        <time>2016-10-18T13:13:13Z</time>
      </trkpt>
      <trkpt lat="43.62015" lon="6.48563">
        <ele>674.5</ele>
        <time>2016-10-18T13:13:27Z</time>
      </trkpt>
      <trkpt lat="43.6202" lon="6.48566">
        <ele>674.5</ele>
        <time>2016-10-18T13:13:34Z</time>
      </trkpt>
      <trkpt lat="43.62022" lon="6.48567">
        <ele>674.5</ele>
        <time>2016-10-18T13:13:36Z</time>
      </trkpt>
      <trkpt lat="43.62031" lon="6.48572">
        <ele>674.98</ele>
        <time>2016-10-18T13:13:50Z</time>
      </trkpt>
      <trkpt lat="43.62039" lon="6.48576">
        <ele>674.98</ele>
        <time>2016-10-18T13:13:59Z</time>
      </trkpt>
      <trkpt lat="43.62051" lon="6.48583">
        <ele>675.46</ele>
        <time>2016-10-18T13:14:14Z</time>
      </trkpt>
      <trkpt lat="43.6206" lon="6.48592">
        <ele>674.98</ele>
        <time>2016-10-18T13:14:27Z</time>
      </trkpt>
      <trkpt lat="43.62067" lon="6.486">
        <ele>674.98</ele>
        <time>2016-10-18T13:14:37Z</time>
      </trkpt>
      <trkpt lat="43.6207" lon="6.48616">
        <ele>674.98</ele>
        <time>2016-10-18T13:14:51Z</time>
      </trkpt>
      <trkpt lat="43.62073" lon="6.48634">
        <ele>674.5</ele>
        <time>2016-10-18T13:15:05Z</time>
      </trkpt>
      <trkpt lat="43.62078" lon="6.48652">
        <ele>674.98</ele>
        <time>2016-10-18T13:15:19Z</time>
      </trkpt>
      <trkpt lat="43.62079" lon="6.48654">
        <ele>674.98</ele>
        <time>2016-10-18T13:15:21Z</time>
      </trkpt>
      <trkpt lat="43.62085" lon="6.48659">
        <ele>674.02</ele>
        <time>2016-10-18T13:15:38Z</time>
      </trkpt>
      <trkpt lat="43.62086" lon="6.48657">
        <ele>674.02</ele>
        <time>2016-10-18T13:16:00Z</time>
      </trkpt>
      <trkpt lat="43.62088" lon="6.48658">
        <ele>674.02</ele>
        <time>2016-10-18T13:16:15Z</time>
      </trkpt>
      <trkpt lat="43.62089" lon="6.48665">
        <ele>673.54</ele>
        <time>2016-10-18T13:16:25Z</time>
      </trkpt>
      <trkpt lat="43.62091" lon="6.48673">
        <ele>672.1</ele>
        <time>2016-10-18T13:16:40Z</time>
      </trkpt>
      <trkpt lat="43.6209" lon="6.48689">
        <ele>671.14</ele>
        <time>2016-10-18T13:16:54Z</time>
      </trkpt>
      <trkpt lat="43.62091" lon="6.48696">
        <ele>670.18</ele>
        <time>2016-10-18T13:17:01Z</time>
      </trkpt>
      <trkpt lat="43.62093" lon="6.48708">
        <ele>669.22</ele>
        <time>2016-10-18T13:17:14Z</time>
      </trkpt>
      <trkpt lat="43.62095" lon="6.48722">
        <ele>667.77</ele>
        <time>2016-10-18T13:17:27Z</time>
      </trkpt>
      <trkpt lat="43.62104" lon="6.48741">
        <ele>665.85</ele>
        <time>2016-10-18T13:17:44Z</time>
      </trkpt>
      <trkpt lat="43.62108" lon="6.48743">
        <ele>666.33</ele>
        <time>2016-10-18T13:17:48Z</time>
      </trkpt>
      <trkpt lat="43.62113" lon="6.48744">
        <ele>665.37</ele>
        <time>2016-10-18T13:17:53Z</time>
      </trkpt>
      <trkpt lat="43.62125" lon="6.48751">
        <ele>665.37</ele>
        <time>2016-10-18T13:18:08Z</time>
      </trkpt>
      <trkpt lat="43.62135" lon="6.48759">
        <ele>666.33</ele>
        <time>2016-10-18T13:18:21Z</time>
      </trkpt>
      <trkpt lat="43.62145" lon="6.48766">
        <ele>666.81</ele>
        <time>2016-10-18T13:18:33Z</time>
      </trkpt>
      <trkpt lat="43.62159" lon="6.48775">
        <ele>667.77</ele>
        <time>2016-10-18T13:18:49Z</time>
      </trkpt>
      <trkpt lat="43.62172" lon="6.48786">
        <ele>668.25</ele>
        <time>2016-10-18T13:19:06Z</time>
      </trkpt>
      <trkpt lat="43.62184" lon="6.48797">
        <ele>668.25</ele>
        <time>2016-10-18T13:19:22Z</time>
      </trkpt>
      <trkpt lat="43.6219" lon="6.488">
        <ele>668.25</ele>
        <time>2016-10-18T13:19:29Z</time>
      </trkpt>
      <trkpt lat="43.62206" lon="6.48801">
        <ele>668.73</ele>
        <time>2016-10-18T13:19:46Z</time>
      </trkpt>
      <trkpt lat="43.62209" lon="6.48803">
        <ele>668.73</ele>
        <time>2016-10-18T13:19:49Z</time>
      </trkpt>
      <trkpt lat="43.62226" lon="6.48804">
        <ele>669.7</ele>
        <time>2016-10-18T13:20:05Z</time>
      </trkpt>
      <trkpt lat="43.62233" lon="6.48809">
        <ele>669.7</ele>
        <time>2016-10-18T13:20:12Z</time>
      </trkpt>
      <trkpt lat="43.62248" lon="6.48813">
        <ele>670.18</ele>
        <time>2016-10-18T13:20:28Z</time>
      </trkpt>
      <trkpt lat="43.6226" lon="6.48815">
        <ele>670.18</ele>
        <time>2016-10-18T13:20:42Z</time>
      </trkpt>
      <trkpt lat="43.62261" lon="6.48815">
        <ele>670.18</ele>
        <time>2016-10-18T13:20:43Z</time>
      </trkpt>
      <trkpt lat="43.62276" lon="6.48813">
        <ele>670.18</ele>
        <time>2016-10-18T13:20:58Z</time>
      </trkpt>
      <trkpt lat="43.62286" lon="6.48814">
        <ele>670.18</ele>
        <time>2016-10-18T13:21:08Z</time>
      </trkpt>
      <trkpt lat="43.6229" lon="6.48815">
        <ele>670.18</ele>
        <time>2016-10-18T13:21:12Z</time>
      </trkpt>
      <trkpt lat="43.623" lon="6.48815">
        <ele>670.18</ele>
        <time>2016-10-18T13:21:25Z</time>
      </trkpt>
      <trkpt lat="43.62312" lon="6.48816">
        <ele>669.7</ele>
        <time>2016-10-18T13:21:38Z</time>
      </trkpt>
      <trkpt lat="43.62314" lon="6.48816">
        <ele>669.7</ele>
        <time>2016-10-18T13:21:43Z</time>
      </trkpt>
      <trkpt lat="43.62323" lon="6.48822">
        <ele>669.22</ele>
        <time>2016-10-18T13:21:52Z</time>
      </trkpt>
      <trkpt lat="43.62327" lon="6.48823">
        <ele>669.22</ele>
        <time>2016-10-18T13:21:57Z</time>
      </trkpt>
      <trkpt lat="43.62337" lon="6.48828">
        <ele>668.73</ele>
        <time>2016-10-18T13:22:09Z</time>
      </trkpt>
      <trkpt lat="43.62345" lon="6.48833">
        <ele>668.25</ele>
        <time>2016-10-18T13:22:17Z</time>
      </trkpt>
      <trkpt lat="43.62361" lon="6.48836">
        <ele>667.77</ele>
        <time>2016-10-18T13:22:32Z</time>
      </trkpt>
      <trkpt lat="43.62375" lon="6.48836">
        <ele>666.81</ele>
        <time>2016-10-18T13:22:45Z</time>
      </trkpt>
      <trkpt lat="43.6239" lon="6.4884">
        <ele>665.85</ele>
        <time>2016-10-18T13:22:59Z</time>
      </trkpt>
      <trkpt lat="43.62396" lon="6.48841">
        <ele>665.85</ele>
        <time>2016-10-18T13:23:07Z</time>
      </trkpt>
      <trkpt lat="43.62405" lon="6.4885">
        <ele>664.89</ele>
        <time>2016-10-18T13:23:16Z</time>
      </trkpt>
      <trkpt lat="43.6242" lon="6.48865">
        <ele>664.89</ele>
        <time>2016-10-18T13:23:33Z</time>
      </trkpt>
      <trkpt lat="43.62431" lon="6.48874">
        <ele>663.93</ele>
        <time>2016-10-18T13:23:45Z</time>
      </trkpt>
      <trkpt lat="43.62439" lon="6.48886">
        <ele>662.97</ele>
        <time>2016-10-18T13:23:59Z</time>
      </trkpt>
      <trkpt lat="43.62441" lon="6.48892">
        <ele>662.97</ele>
        <time>2016-10-18T13:24:03Z</time>
      </trkpt>
      <trkpt lat="43.62445" lon="6.489">
        <ele>662.01</ele>
        <time>2016-10-18T13:24:11Z</time>
      </trkpt>
      <trkpt lat="43.62449" lon="6.48903">
        <ele>663.45</ele>
        <time>2016-10-18T13:24:15Z</time>
      </trkpt>
      <trkpt lat="43.62456" lon="6.48921">
        <ele>660.56</ele>
        <time>2016-10-18T13:24:31Z</time>
      </trkpt>
      <trkpt lat="43.6246" lon="6.48939">
        <ele>659.6</ele>
        <time>2016-10-18T13:24:42Z</time>
      </trkpt>
      <trkpt lat="43.62463" lon="6.48954">
        <ele>658.64</ele>
        <time>2016-10-18T13:24:54Z</time>
      </trkpt>
      <trkpt lat="43.62467" lon="6.48974">
        <ele>657.68</ele>
        <time>2016-10-18T13:25:09Z</time>
      </trkpt>
      <trkpt lat="43.6247" lon="6.48988">
        <ele>656.24</ele>
        <time>2016-10-18T13:25:22Z</time>
      </trkpt>
      <trkpt lat="43.62473" lon="6.49002">
        <ele>654.8</ele>
        <time>2016-10-18T13:25:32Z</time>
      </trkpt>
      <trkpt lat="43.62476" lon="6.49006">
        <ele>654.31</ele>
        <time>2016-10-18T13:25:36Z</time>
      </trkpt>
      <trkpt lat="43.62486" lon="6.49024">
        <ele>652.39</ele>
        <time>2016-10-18T13:25:51Z</time>
      </trkpt>
      <trkpt lat="43.62496" lon="6.49035">
        <ele>650.47</ele>
        <time>2016-10-18T13:26:05Z</time>
      </trkpt>
      <trkpt lat="43.62504" lon="6.49046">
        <ele>649.51</ele>
        <time>2016-10-18T13:26:16Z</time>
      </trkpt>
      <trkpt lat="43.62506" lon="6.49048">
        <ele>649.03</ele>
        <time>2016-10-18T13:26:18Z</time>
      </trkpt>
      <trkpt lat="43.62513" lon="6.49064">
        <ele>647.1</ele>
        <time>2016-10-18T13:26:31Z</time>
      </trkpt>
      <trkpt lat="43.62522" lon="6.49074">
        <ele>645.18</ele>
        <time>2016-10-18T13:26:44Z</time>
      </trkpt>
      <trkpt lat="43.62529" lon="6.49084">
        <ele>642.78</ele>
        <time>2016-10-18T13:26:57Z</time>
      </trkpt>
      <trkpt lat="43.62534" lon="6.49095">
        <ele>641.34</ele>
        <time>2016-10-18T13:27:10Z</time>
      </trkpt>
      <trkpt lat="43.6254" lon="6.49109">
        <ele>640.38</ele>
        <time>2016-10-18T13:27:24Z</time>
      </trkpt>
      <trkpt lat="43.6255" lon="6.49131">
        <ele>639.89</ele>
        <time>2016-10-18T13:27:38Z</time>
      </trkpt>
      <trkpt lat="43.6256" lon="6.49148">
        <ele>639.41</ele>
        <time>2016-10-18T13:27:53Z</time>
      </trkpt>
      <trkpt lat="43.62566" lon="6.49147">
        <ele>639.41</ele>
        <time>2016-10-18T13:28:03Z</time>
      </trkpt>
      <trkpt lat="43.62566" lon="6.49142">
        <ele>639.41</ele>
        <time>2016-10-18T13:28:24Z</time>
      </trkpt>
      <trkpt lat="43.62566" lon="6.49142">
        <ele>639.41</ele>
        <time>2016-10-18T13:28:52Z</time>
      </trkpt>
      <trkpt lat="43.62564" lon="6.49143">
        <ele>639.41</ele>
        <time>2016-10-18T13:29:20Z</time>
      </trkpt>
      <trkpt lat="43.62561" lon="6.49143">
        <ele>639.89</ele>
        <time>2016-10-18T13:29:45Z</time>
      </trkpt>
      <trkpt lat="43.62559" lon="6.49142">
        <ele>639.89</ele>
        <time>2016-10-18T13:30:05Z</time>
      </trkpt>
      <trkpt lat="43.62562" lon="6.49142">
        <ele>639.41</ele>
        <time>2016-10-18T13:30:21Z</time>
      </trkpt>
      <trkpt lat="43.62566" lon="6.49143">
        <ele>639.41</ele>
        <time>2016-10-18T13:30:38Z</time>
      </trkpt>
      <trkpt lat="43.62568" lon="6.49144">
        <ele>639.41</ele>
        <time>2016-10-18T13:30:41Z</time>
      </trkpt>
      <trkpt lat="43.62579" lon="6.49153">
        <ele>639.41</ele>
        <time>2016-10-18T13:30:54Z</time>
      </trkpt>
      <trkpt lat="43.62584" lon="6.49152">
        <ele>638.93</ele>
        <time>2016-10-18T13:31:02Z</time>
      </trkpt>
      <trkpt lat="43.62601" lon="6.49154">
        <ele>639.89</ele>
        <time>2016-10-18T13:31:16Z</time>
      </trkpt>
      <trkpt lat="43.62611" lon="6.49158">
        <ele>640.38</ele>
        <time>2016-10-18T13:31:29Z</time>
      </trkpt>
      <trkpt lat="43.62611" lon="6.49158">
        <ele>640.38</ele>
        <time>2016-10-18T13:31:30Z</time>
      </trkpt>
      <trkpt lat="43.62614" lon="6.49162">
        <ele>640.38</ele>
        <time>2016-10-18T13:31:34Z</time>
      </trkpt>
      <trkpt lat="43.62618" lon="6.49168">
        <ele>639.89</ele>
        <time>2016-10-18T13:31:39Z</time>
      </trkpt>
      <trkpt lat="43.62626" lon="6.49183">
        <ele>638.45</ele>
        <time>2016-10-18T13:31:49Z</time>
      </trkpt>
      <trkpt lat="43.62632" lon="6.49199">
        <ele>637.01</ele>
        <time>2016-10-18T13:31:58Z</time>
      </trkpt>
      <trkpt lat="43.62635" lon="6.49226">
        <ele>635.09</ele>
        <time>2016-10-18T13:32:14Z</time>
      </trkpt>
      <trkpt lat="43.62634" lon="6.49237">
        <ele>634.61</ele>
        <time>2016-10-18T13:32:21Z</time>
      </trkpt>
      <trkpt lat="43.62636" lon="6.49247">
        <ele>633.65</ele>
        <time>2016-10-18T13:32:27Z</time>
      </trkpt>
      <trkpt lat="43.62637" lon="6.49253">
        <ele>632.68</ele>
        <time>2016-10-18T13:32:30Z</time>
      </trkpt>
      <trkpt lat="43.62636" lon="6.49277">
        <ele>631.24</ele>
        <time>2016-10-18T13:32:42Z</time>
      </trkpt>
      <trkpt lat="43.62641" lon="6.49287">
        <ele>629.8</ele>
        <time>2016-10-18T13:32:50Z</time>
      </trkpt>
      <trkpt lat="43.62649" lon="6.49306">
        <ele>627.4</ele>
        <time>2016-10-18T13:33:04Z</time>
      </trkpt>
      <trkpt lat="43.62652" lon="6.49312">
        <ele>626.92</ele>
        <time>2016-10-18T13:33:08Z</time>
      </trkpt>
      <trkpt lat="43.62656" lon="6.49318">
        <ele>625.96</ele>
        <time>2016-10-18T13:33:13Z</time>
      </trkpt>
      <trkpt lat="43.62658" lon="6.49322">
        <ele>625.47</ele>
        <time>2016-10-18T13:33:16Z</time>
      </trkpt>
      <trkpt lat="43.6266" lon="6.4934">
        <ele>624.99</ele>
        <time>2016-10-18T13:33:28Z</time>
      </trkpt>
      <trkpt lat="43.6266" lon="6.49342">
        <ele>624.99</ele>
        <time>2016-10-18T13:33:29Z</time>
      </trkpt>
      <trkpt lat="43.62662" lon="6.49364">
        <ele>624.51</ele>
        <time>2016-10-18T13:33:42Z</time>
      </trkpt>
      <trkpt lat="43.62673" lon="6.49376">
        <ele>623.55</ele>
        <time>2016-10-18T13:33:53Z</time>
      </trkpt>
      <trkpt lat="43.6269" lon="6.49383">
        <ele>622.59</ele>
        <time>2016-10-18T13:34:06Z</time>
      </trkpt>
      <trkpt lat="43.62698" lon="6.49387">
        <ele>622.11</ele>
        <time>2016-10-18T13:34:12Z</time>
      </trkpt>
      <trkpt lat="43.62714" lon="6.49395">
        <ele>621.63</ele>
        <time>2016-10-18T13:34:26Z</time>
      </trkpt>
      <trkpt lat="43.62727" lon="6.49403">
        <ele>621.15</ele>
        <time>2016-10-18T13:34:37Z</time>
      </trkpt>
      <trkpt lat="43.62737" lon="6.49407">
        <ele>621.15</ele>
        <time>2016-10-18T13:34:45Z</time>
      </trkpt>
      <trkpt lat="43.62748" lon="6.49407">
        <ele>621.15</ele>
        <time>2016-10-18T13:34:58Z</time>
      </trkpt>
      <trkpt lat="43.62749" lon="6.49405">
        <ele>621.15</ele>
        <time>2016-10-18T13:35:17Z</time>
      </trkpt>
      <trkpt lat="43.62748" lon="6.49405">
        <ele>621.63</ele>
        <time>2016-10-18T13:35:32Z</time>
      </trkpt>
      <trkpt lat="43.62748" lon="6.49404">
        <ele>621.15</ele>
        <time>2016-10-18T13:35:55Z</time>
      </trkpt>
      <trkpt lat="43.62749" lon="6.49404">
        <ele>621.15</ele>
        <time>2016-10-18T13:36:18Z</time>
      </trkpt>
      <trkpt lat="43.62749" lon="6.49404">
        <ele>621.63</ele>
        <time>2016-10-18T13:36:41Z</time>
      </trkpt>
      <trkpt lat="43.62749" lon="6.49404">
        <ele>621.63</ele>
        <time>2016-10-18T13:37:02Z</time>
      </trkpt>
      <trkpt lat="43.62748" lon="6.49403">
        <ele>621.63</ele>
        <time>2016-10-18T13:37:26Z</time>
      </trkpt>
      <trkpt lat="43.62748" lon="6.49403">
        <ele>621.63</ele>
        <time>2016-10-18T13:37:43Z</time>
      </trkpt>
      <trkpt lat="43.62756" lon="6.49414">
        <ele>621.15</ele>
        <time>2016-10-18T13:37:51Z</time>
      </trkpt>
      <trkpt lat="43.62761" lon="6.49435">
        <ele>620.67</ele>
        <time>2016-10-18T13:38:04Z</time>
      </trkpt>
      <trkpt lat="43.62763" lon="6.49442">
        <ele>620.67</ele>
        <time>2016-10-18T13:38:08Z</time>
      </trkpt>
      <trkpt lat="43.62767" lon="6.49463">
        <ele>620.19</ele>
        <time>2016-10-18T13:38:21Z</time>
      </trkpt>
      <trkpt lat="43.62769" lon="6.49467">
        <ele>619.71</ele>
        <time>2016-10-18T13:38:23Z</time>
      </trkpt>
      <trkpt lat="43.62771" lon="6.49473">
        <ele>619.71</ele>
        <time>2016-10-18T13:38:27Z</time>
      </trkpt>
      <trkpt lat="43.62774" lon="6.4949">
        <ele>619.23</ele>
        <time>2016-10-18T13:38:40Z</time>
      </trkpt>
      <trkpt lat="43.62774" lon="6.49494">
        <ele>619.23</ele>
        <time>2016-10-18T13:38:43Z</time>
      </trkpt>
      <trkpt lat="43.62771" lon="6.49496">
        <ele>618.75</ele>
        <time>2016-10-18T13:38:48Z</time>
      </trkpt>
      <trkpt lat="43.62768" lon="6.49497">
        <ele>618.75</ele>
        <time>2016-10-18T13:38:51Z</time>
      </trkpt>
      <trkpt lat="43.62766" lon="6.49497">
        <ele>618.75</ele>
        <time>2016-10-18T13:38:53Z</time>
      </trkpt>
      <trkpt lat="43.62762" lon="6.49496">
        <ele>618.75</ele>
        <time>2016-10-18T13:38:58Z</time>
      </trkpt>
      <trkpt lat="43.62755" lon="6.49494">
        <ele>618.75</ele>
        <time>2016-10-18T13:39:04Z</time>
      </trkpt>
      <trkpt lat="43.6274" lon="6.49492">
        <ele>618.75</ele>
        <time>2016-10-18T13:39:18Z</time>
      </trkpt>
      <trkpt lat="43.62724" lon="6.49494">
        <ele>618.75</ele>
        <time>2016-10-18T13:39:32Z</time>
      </trkpt>
      <trkpt lat="43.62722" lon="6.49495">
        <ele>618.75</ele>
        <time>2016-10-18T13:39:33Z</time>
      </trkpt>
      <trkpt lat="43.62706" lon="6.49501">
        <ele>618.75</ele>
        <time>2016-10-18T13:39:47Z</time>
      </trkpt>
      <trkpt lat="43.62691" lon="6.49501">
        <ele>619.23</ele>
        <time>2016-10-18T13:40:00Z</time>
      </trkpt>
      <trkpt lat="43.62676" lon="6.49504">
        <ele>619.71</ele>
        <time>2016-10-18T13:40:14Z</time>
      </trkpt>
      <trkpt lat="43.62674" lon="6.49504">
        <ele>620.19</ele>
        <time>2016-10-18T13:40:16Z</time>
      </trkpt>
      <trkpt lat="43.62662" lon="6.49518">
        <ele>620.67</ele>
        <time>2016-10-18T13:40:29Z</time>
      </trkpt>
      <trkpt lat="43.62656" lon="6.49526">
        <ele>621.63</ele>
        <time>2016-10-18T13:40:37Z</time>
      </trkpt>
      <trkpt lat="43.62654" lon="6.49528">
        <ele>621.63</ele>
        <time>2016-10-18T13:40:40Z</time>
      </trkpt>
      <trkpt lat="43.62647" lon="6.4953">
        <ele>622.59</ele>
        <time>2016-10-18T13:40:46Z</time>
      </trkpt>
      <trkpt lat="43.6263" lon="6.49529">
        <ele>624.03</ele>
        <time>2016-10-18T13:41:02Z</time>
      </trkpt>
      <trkpt lat="43.62629" lon="6.49529">
        <ele>624.03</ele>
        <time>2016-10-18T13:41:03Z</time>
      </trkpt>
      <trkpt lat="43.62624" lon="6.49533">
        <ele>624.51</ele>
        <time>2016-10-18T13:41:08Z</time>
      </trkpt>
      <trkpt lat="43.62622" lon="6.49536">
        <ele>624.99</ele>
        <time>2016-10-18T13:41:11Z</time>
      </trkpt>
      <trkpt lat="43.62616" lon="6.49552">
        <ele>625.96</ele>
        <time>2016-10-18T13:41:23Z</time>
      </trkpt>
      <trkpt lat="43.62614" lon="6.49556">
        <ele>625.96</ele>
        <time>2016-10-18T13:41:26Z</time>
      </trkpt>
      <trkpt lat="43.62611" lon="6.49576">
        <ele>627.4</ele>
        <time>2016-10-18T13:41:38Z</time>
      </trkpt>
      <trkpt lat="43.62609" lon="6.49595">
        <ele>628.84</ele>
        <time>2016-10-18T13:41:49Z</time>
      </trkpt>
      <trkpt lat="43.62609" lon="6.49601">
        <ele>628.84</ele>
        <time>2016-10-18T13:41:51Z</time>
      </trkpt>
      <trkpt lat="43.6261" lon="6.49605">
        <ele>628.84</ele>
        <time>2016-10-18T13:41:53Z</time>
      </trkpt>
      <trkpt lat="43.6261" lon="6.49616">
        <ele>629.8</ele>
        <time>2016-10-18T13:41:59Z</time>
      </trkpt>
      <trkpt lat="43.62606" lon="6.49638">
        <ele>629.32</ele>
        <time>2016-10-18T13:42:13Z</time>
      </trkpt>
      <trkpt lat="43.62606" lon="6.49644">
        <ele>629.32</ele>
        <time>2016-10-18T13:42:17Z</time>
      </trkpt>
      <trkpt lat="43.62604" lon="6.49653">
        <ele>628.36</ele>
        <time>2016-10-18T13:42:23Z</time>
      </trkpt>
      <trkpt lat="43.62606" lon="6.49667">
        <ele>626.92</ele>
        <time>2016-10-18T13:42:32Z</time>
      </trkpt>
      <trkpt lat="43.62611" lon="6.49687">
        <ele>625.47</ele>
        <time>2016-10-18T13:42:45Z</time>
      </trkpt>
      <trkpt lat="43.6261" lon="6.49704">
        <ele>624.03</ele>
        <time>2016-10-18T13:42:58Z</time>
      </trkpt>
      <trkpt lat="43.6261" lon="6.49705">
        <ele>624.03</ele>
        <time>2016-10-18T13:43:00Z</time>
      </trkpt>
      <trkpt lat="43.62609" lon="6.49711">
        <ele>623.55</ele>
        <time>2016-10-18T13:43:04Z</time>
      </trkpt>
      <trkpt lat="43.62607" lon="6.49725">
        <ele>623.07</ele>
        <time>2016-10-18T13:43:14Z</time>
      </trkpt>
      <trkpt lat="43.62607" lon="6.4973">
        <ele>622.59</ele>
        <time>2016-10-18T13:43:18Z</time>
      </trkpt>
      <trkpt lat="43.62606" lon="6.49741">
        <ele>622.11</ele>
        <time>2016-10-18T13:43:26Z</time>
      </trkpt>
      <trkpt lat="43.62605" lon="6.49756">
        <ele>621.15</ele>
        <time>2016-10-18T13:43:40Z</time>
      </trkpt>
      <trkpt lat="43.62605" lon="6.49757">
        <ele>621.15</ele>
        <time>2016-10-18T13:43:52Z</time>
      </trkpt>
      <trkpt lat="43.62603" lon="6.49764">
        <ele>620.67</ele>
        <time>2016-10-18T13:43:57Z</time>
      </trkpt>
      <trkpt lat="43.62601" lon="6.4977">
        <ele>620.19</ele>
        <time>2016-10-18T13:44:03Z</time>
      </trkpt>
      <trkpt lat="43.62597" lon="6.49789">
        <ele>619.71</ele>
        <time>2016-10-18T13:44:15Z</time>
      </trkpt>
      <trkpt lat="43.62597" lon="6.49796">
        <ele>619.23</ele>
        <time>2016-10-18T13:44:20Z</time>
      </trkpt>
      <trkpt lat="43.62597" lon="6.49804">
        <ele>618.75</ele>
        <time>2016-10-18T13:44:33Z</time>
      </trkpt>
      <trkpt lat="43.62599" lon="6.49807">
        <ele>618.75</ele>
        <time>2016-10-18T13:45:03Z</time>
      </trkpt>
      <trkpt lat="43.62599" lon="6.49807">
        <ele>619.23</ele>
        <time>2016-10-18T13:45:30Z</time>
      </trkpt>
      <trkpt lat="43.62599" lon="6.49808">
        <ele>619.23</ele>
        <time>2016-10-18T13:45:59Z</time>
      </trkpt>
      <trkpt lat="43.62599" lon="6.49807">
        <ele>619.23</ele>
        <time>2016-10-18T13:46:32Z</time>
      </trkpt>
      <trkpt lat="43.62599" lon="6.49807">
        <ele>619.71</ele>
        <time>2016-10-18T13:47:00Z</time>
      </trkpt>
      <trkpt lat="43.62599" lon="6.49807">
        <ele>619.71</ele>
        <time>2016-10-18T13:47:27Z</time>
      </trkpt>
      <trkpt lat="43.62599" lon="6.49808">
        <ele>619.71</ele>
        <time>2016-10-18T13:48:00Z</time>
      </trkpt>
      <trkpt lat="43.62594" lon="6.49815">
        <ele>621.15</ele>
        <time>2016-10-18T13:48:20Z</time>
      </trkpt>
      <trkpt lat="43.62589" lon="6.49829">
        <ele>622.11</ele>
        <time>2016-10-18T13:48:33Z</time>
      </trkpt>
      <trkpt lat="43.62581" lon="6.49836">
        <ele>623.55</ele>
        <time>2016-10-18T13:48:46Z</time>
      </trkpt>
      <trkpt lat="43.62572" lon="6.49849">
        <ele>624.03</ele>
        <time>2016-10-18T13:49:00Z</time>
      </trkpt>
      <trkpt lat="43.62566" lon="6.49853">
        <ele>627.4</ele>
        <time>2016-10-18T13:49:16Z</time>
      </trkpt>
      <trkpt lat="43.62563" lon="6.49862">
        <ele>626.44</ele>
        <time>2016-10-18T13:49:39Z</time>
      </trkpt>
      <trkpt lat="43.62558" lon="6.49877">
        <ele>624.51</ele>
        <time>2016-10-18T13:49:52Z</time>
      </trkpt>
      <trkpt lat="43.62557" lon="6.49904">
        <ele>624.03</ele>
        <time>2016-10-18T13:50:07Z</time>
      </trkpt>
      <trkpt lat="43.62555" lon="6.49929">
        <ele>624.51</ele>
        <time>2016-10-18T13:50:25Z</time>
      </trkpt>
      <trkpt lat="43.62559" lon="6.49951">
        <ele>622.11</ele>
        <time>2016-10-18T13:50:39Z</time>
      </trkpt>
      <trkpt lat="43.6256" lon="6.49964">
        <ele>620.19</ele>
        <time>2016-10-18T13:50:53Z</time>
      </trkpt>
      <trkpt lat="43.62557" lon="6.49979">
        <ele>621.63</ele>
        <time>2016-10-18T13:51:08Z</time>
      </trkpt>
      <trkpt lat="43.62559" lon="6.49996">
        <ele>620.67</ele>
        <time>2016-10-18T13:51:21Z</time>
      </trkpt>
      <trkpt lat="43.62562" lon="6.50001">
        <ele>619.71</ele>
        <time>2016-10-18T13:51:25Z</time>
      </trkpt>
      <trkpt lat="43.62565" lon="6.50016">
        <ele>618.26</ele>
        <time>2016-10-18T13:51:37Z</time>
      </trkpt>
      <trkpt lat="43.62565" lon="6.50034">
        <ele>616.82</ele>
        <time>2016-10-18T13:51:52Z</time>
      </trkpt>
      <trkpt lat="43.62565" lon="6.50037">
        <ele>616.34</ele>
        <time>2016-10-18T13:51:54Z</time>
      </trkpt>
      <trkpt lat="43.62563" lon="6.50059">
        <ele>615.86</ele>
        <time>2016-10-18T13:52:08Z</time>
      </trkpt>
      <trkpt lat="43.62564" lon="6.5007">
        <ele>615.38</ele>
        <time>2016-10-18T13:52:15Z</time>
      </trkpt>
      <trkpt lat="43.62564" lon="6.50082">
        <ele>614.42</ele>
        <time>2016-10-18T13:52:24Z</time>
      </trkpt>
      <trkpt lat="43.62561" lon="6.50089">
        <ele>613.94</ele>
        <time>2016-10-18T13:52:40Z</time>
      </trkpt>
      <trkpt lat="43.62562" lon="6.50089">
        <ele>613.94</ele>
        <time>2016-10-18T13:53:00Z</time>
      </trkpt>
      <trkpt lat="43.62562" lon="6.50091">
        <ele>613.94</ele>
        <time>2016-10-18T13:53:37Z</time>
      </trkpt>
      <trkpt lat="43.62563" lon="6.50091">
        <ele>613.94</ele>
        <time>2016-10-18T13:54:01Z</time>
      </trkpt>
      <trkpt lat="43.62563" lon="6.50091">
        <ele>614.42</ele>
        <time>2016-10-18T13:54:23Z</time>
      </trkpt>
      <trkpt lat="43.62563" lon="6.5009">
        <ele>613.94</ele>
        <time>2016-10-18T13:54:48Z</time>
      </trkpt>
      <trkpt lat="43.62563" lon="6.5009">
        <ele>613.94</ele>
        <time>2016-10-18T13:54:59Z</time>
      </trkpt>
      <trkpt lat="43.62561" lon="6.50093">
        <ele>614.42</ele>
        <time>2016-10-18T13:55:02Z</time>
      </trkpt>
      <trkpt lat="43.62553" lon="6.50095">
        <ele>616.34</ele>
        <time>2016-10-18T13:55:14Z</time>
      </trkpt>
      <trkpt lat="43.62543" lon="6.50106">
        <ele>612.98</ele>
        <time>2016-10-18T13:55:31Z</time>
      </trkpt>
      <trkpt lat="43.6254" lon="6.50122">
        <ele>613.46</ele>
        <time>2016-10-18T13:55:42Z</time>
      </trkpt>
      <trkpt lat="43.62532" lon="6.50132">
        <ele>614.9</ele>
        <time>2016-10-18T13:55:57Z</time>
      </trkpt>
      <trkpt lat="43.62524" lon="6.50139">
        <ele>614.9</ele>
        <time>2016-10-18T13:56:11Z</time>
      </trkpt>
      <trkpt lat="43.62517" lon="6.50149">
        <ele>614.9</ele>
        <time>2016-10-18T13:56:19Z</time>
      </trkpt>
      <trkpt lat="43.62512" lon="6.50172">
        <ele>613.94</ele>
        <time>2016-10-18T13:56:35Z</time>
      </trkpt>
      <trkpt lat="43.62509" lon="6.50186">
        <ele>612.5</ele>
        <time>2016-10-18T13:56:48Z</time>
      </trkpt>
      <trkpt lat="43.62508" lon="6.50201">
        <ele>611.54</ele>
        <time>2016-10-18T13:57:03Z</time>
      </trkpt>
      <trkpt lat="43.62505" lon="6.50217">
        <ele>610.09</ele>
        <time>2016-10-18T13:57:15Z</time>
      </trkpt>
      <trkpt lat="43.62504" lon="6.50219">
        <ele>609.61</ele>
        <time>2016-10-18T13:57:17Z</time>
      </trkpt>
      <trkpt lat="43.62502" lon="6.50223">
        <ele>609.13</ele>
        <time>2016-10-18T13:57:21Z</time>
      </trkpt>
      <trkpt lat="43.62496" lon="6.50239">
        <ele>607.69</ele>
        <time>2016-10-18T13:57:33Z</time>
      </trkpt>
      <trkpt lat="43.6249" lon="6.50254">
        <ele>607.21</ele>
        <time>2016-10-18T13:57:45Z</time>
      </trkpt>
      <trkpt lat="43.62486" lon="6.50258">
        <ele>606.73</ele>
        <time>2016-10-18T13:57:51Z</time>
      </trkpt>
      <trkpt lat="43.62478" lon="6.50271">
        <ele>606.25</ele>
        <time>2016-10-18T13:58:02Z</time>
      </trkpt>
      <trkpt lat="43.62476" lon="6.50276">
        <ele>606.25</ele>
        <time>2016-10-18T13:58:05Z</time>
      </trkpt>
      <trkpt lat="43.62476" lon="6.50284">
        <ele>605.77</ele>
        <time>2016-10-18T13:58:10Z</time>
      </trkpt>
      <trkpt lat="43.62469" lon="6.50304">
        <ele>605.29</ele>
        <time>2016-10-18T13:58:23Z</time>
      </trkpt>
      <trkpt lat="43.62467" lon="6.50312">
        <ele>604.81</ele>
        <time>2016-10-18T13:58:33Z</time>
      </trkpt>
      <trkpt lat="43.62465" lon="6.50314">
        <ele>605.29</ele>
        <time>2016-10-18T13:58:35Z</time>
      </trkpt>
      <trkpt lat="43.62451" lon="6.50328">
        <ele>605.29</ele>
        <time>2016-10-18T13:58:50Z</time>
      </trkpt>
      <trkpt lat="43.62444" lon="6.50333">
        <ele>604.81</ele>
        <time>2016-10-18T13:58:58Z</time>
      </trkpt>
      <trkpt lat="43.62433" lon="6.50351">
        <ele>604.81</ele>
        <time>2016-10-18T13:59:15Z</time>
      </trkpt>
      <trkpt lat="43.62426" lon="6.50366">
        <ele>604.81</ele>
        <time>2016-10-18T13:59:29Z</time>
      </trkpt>
      <trkpt lat="43.62427" lon="6.50366">
        <ele>604.81</ele>
        <time>2016-10-18T13:59:52Z</time>
      </trkpt>
      <trkpt lat="43.62427" lon="6.50364">
        <ele>604.81</ele>
        <time>2016-10-18T14:00:20Z</time>
      </trkpt>
      <trkpt lat="43.62427" lon="6.50364">
        <ele>604.81</ele>
        <time>2016-10-18T14:00:48Z</time>
      </trkpt>
      <trkpt lat="43.62428" lon="6.50365">
        <ele>605.29</ele>
        <time>2016-10-18T14:01:13Z</time>
      </trkpt>
      <trkpt lat="43.62429" lon="6.50365">
        <ele>605.29</ele>
        <time>2016-10-18T14:01:34Z</time>
      </trkpt>
      <trkpt lat="43.6243" lon="6.50365">
        <ele>604.81</ele>
        <time>2016-10-18T14:01:52Z</time>
      </trkpt>
      <trkpt lat="43.62432" lon="6.50363">
        <ele>604.81</ele>
        <time>2016-10-18T14:02:22Z</time>
      </trkpt>
      <trkpt lat="43.62431" lon="6.50364">
        <ele>605.29</ele>
        <time>2016-10-18T14:02:28Z</time>
      </trkpt>
      <trkpt lat="43.6243" lon="6.50367">
        <ele>604.81</ele>
        <time>2016-10-18T14:02:30Z</time>
      </trkpt>
      <trkpt lat="43.62425" lon="6.50372">
        <ele>604.81</ele>
        <time>2016-10-18T14:02:36Z</time>
      </trkpt>
      <trkpt lat="43.62421" lon="6.50378">
        <ele>604.81</ele>
        <time>2016-10-18T14:02:41Z</time>
      </trkpt>
      <trkpt lat="43.62419" lon="6.50383">
        <ele>604.81</ele>
        <time>2016-10-18T14:02:44Z</time>
      </trkpt>
      <trkpt lat="43.62417" lon="6.50391">
        <ele>604.33</ele>
        <time>2016-10-18T14:02:49Z</time>
      </trkpt>
      <trkpt lat="43.62413" lon="6.50395">
        <ele>604.33</ele>
        <time>2016-10-18T14:02:53Z</time>
      </trkpt>
      <trkpt lat="43.6241" lon="6.50401">
        <ele>604.33</ele>
        <time>2016-10-18T14:02:57Z</time>
      </trkpt>
      <trkpt lat="43.62408" lon="6.50403">
        <ele>603.85</ele>
        <time>2016-10-18T14:03:00Z</time>
      </trkpt>
      <trkpt lat="43.62406" lon="6.50405">
        <ele>604.33</ele>
        <time>2016-10-18T14:03:02Z</time>
      </trkpt>
      <trkpt lat="43.62394" lon="6.50422">
        <ele>604.33</ele>
        <time>2016-10-18T14:03:17Z</time>
      </trkpt>
      <trkpt lat="43.62389" lon="6.5044">
        <ele>602.88</ele>
        <time>2016-10-18T14:03:29Z</time>
      </trkpt>
      <trkpt lat="43.62382" lon="6.50456">
        <ele>602.88</ele>
        <time>2016-10-18T14:03:42Z</time>
      </trkpt>
      <trkpt lat="43.62376" lon="6.50465">
        <ele>602.88</ele>
        <time>2016-10-18T14:03:49Z</time>
      </trkpt>
      <trkpt lat="43.62373" lon="6.50468">
        <ele>602.88</ele>
        <time>2016-10-18T14:03:52Z</time>
      </trkpt>
      <trkpt lat="43.62363" lon="6.50484">
        <ele>600.96</ele>
        <time>2016-10-18T14:04:06Z</time>
      </trkpt>
      <trkpt lat="43.62362" lon="6.50488">
        <ele>600.96</ele>
        <time>2016-10-18T14:04:09Z</time>
      </trkpt>
      <trkpt lat="43.62363" lon="6.50504">
        <ele>599.52</ele>
        <time>2016-10-18T14:04:20Z</time>
      </trkpt>
      <trkpt lat="43.6236" lon="6.50508">
        <ele>599.04</ele>
        <time>2016-10-18T14:04:24Z</time>
      </trkpt>
      <trkpt lat="43.62356" lon="6.5051">
        <ele>599.04</ele>
        <time>2016-10-18T14:04:30Z</time>
      </trkpt>
      <trkpt lat="43.62351" lon="6.50513">
        <ele>599.52</ele>
        <time>2016-10-18T14:04:34Z</time>
      </trkpt>
      <trkpt lat="43.62344" lon="6.50523">
        <ele>599.52</ele>
        <time>2016-10-18T14:04:45Z</time>
      </trkpt>
      <trkpt lat="43.62332" lon="6.50531">
        <ele>599.52</ele>
        <time>2016-10-18T14:04:57Z</time>
      </trkpt>
      <trkpt lat="43.62328" lon="6.50536">
        <ele>600</ele>
        <time>2016-10-18T14:05:02Z</time>
      </trkpt>
      <trkpt lat="43.62316" lon="6.50543">
        <ele>600.96</ele>
        <time>2016-10-18T14:05:16Z</time>
      </trkpt>
      <trkpt lat="43.6231" lon="6.50545">
        <ele>601.44</ele>
        <time>2016-10-18T14:05:21Z</time>
      </trkpt>
      <trkpt lat="43.62301" lon="6.50546">
        <ele>601.92</ele>
        <time>2016-10-18T14:05:29Z</time>
      </trkpt>
      <trkpt lat="43.62289" lon="6.50549">
        <ele>602.88</ele>
        <time>2016-10-18T14:05:40Z</time>
      </trkpt>
      <trkpt lat="43.6228" lon="6.50554">
        <ele>602.4</ele>
        <time>2016-10-18T14:05:50Z</time>
      </trkpt>
      <trkpt lat="43.6227" lon="6.50562">
        <ele>601.92</ele>
        <time>2016-10-18T14:05:59Z</time>
      </trkpt>
      <trkpt lat="43.62257" lon="6.50571">
        <ele>601.92</ele>
        <time>2016-10-18T14:06:12Z</time>
      </trkpt>
      <trkpt lat="43.62253" lon="6.50575">
        <ele>601.44</ele>
        <time>2016-10-18T14:06:17Z</time>
      </trkpt>
      <trkpt lat="43.62251" lon="6.50577">
        <ele>601.44</ele>
        <time>2016-10-18T14:06:19Z</time>
      </trkpt>
      <trkpt lat="43.62248" lon="6.50578">
        <ele>601.44</ele>
        <time>2016-10-18T14:06:22Z</time>
      </trkpt>
      <trkpt lat="43.62244" lon="6.50579">
        <ele>601.44</ele>
        <time>2016-10-18T14:06:26Z</time>
      </trkpt>
      <trkpt lat="43.62242" lon="6.50581">
        <ele>601.44</ele>
        <time>2016-10-18T14:06:28Z</time>
      </trkpt>
      <trkpt lat="43.62237" lon="6.50584">
        <ele>600.96</ele>
        <time>2016-10-18T14:06:32Z</time>
      </trkpt>
      <trkpt lat="43.62234" lon="6.50584">
        <ele>600.96</ele>
        <time>2016-10-18T14:06:34Z</time>
      </trkpt>
      <trkpt lat="43.62232" lon="6.50585">
        <ele>600.96</ele>
        <time>2016-10-18T14:06:36Z</time>
      </trkpt>
      <trkpt lat="43.62229" lon="6.50586">
        <ele>600.96</ele>
        <time>2016-10-18T14:06:39Z</time>
      </trkpt>
      <trkpt lat="43.62226" lon="6.5059">
        <ele>600.48</ele>
        <time>2016-10-18T14:06:43Z</time>
      </trkpt>
      <trkpt lat="43.62221" lon="6.50593">
        <ele>600</ele>
        <time>2016-10-18T14:06:48Z</time>
      </trkpt>
      <trkpt lat="43.62219" lon="6.50595">
        <ele>599.52</ele>
        <time>2016-10-18T14:06:51Z</time>
      </trkpt>
      <trkpt lat="43.62216" lon="6.50598">
        <ele>599.52</ele>
        <time>2016-10-18T14:06:55Z</time>
      </trkpt>
      <trkpt lat="43.62214" lon="6.506">
        <ele>599.52</ele>
        <time>2016-10-18T14:06:57Z</time>
      </trkpt>
      <trkpt lat="43.6221" lon="6.50602">
        <ele>599.04</ele>
        <time>2016-10-18T14:07:01Z</time>
      </trkpt>
      <trkpt lat="43.62201" lon="6.50606">
        <ele>598.08</ele>
        <time>2016-10-18T14:07:11Z</time>
      </trkpt>
      <trkpt lat="43.62195" lon="6.50608">
        <ele>597.6</ele>
        <time>2016-10-18T14:07:16Z</time>
      </trkpt>
      <trkpt lat="43.62184" lon="6.50612">
        <ele>596.64</ele>
        <time>2016-10-18T14:07:28Z</time>
      </trkpt>
      <trkpt lat="43.62173" lon="6.50614">
        <ele>594.71</ele>
        <time>2016-10-18T14:07:41Z</time>
      </trkpt>
      <trkpt lat="43.62165" lon="6.50619">
        <ele>594.23</ele>
        <time>2016-10-18T14:07:48Z</time>
      </trkpt>
      <trkpt lat="43.62151" lon="6.50626">
        <ele>593.75</ele>
        <time>2016-10-18T14:08:02Z</time>
      </trkpt>
      <trkpt lat="43.62142" lon="6.50634">
        <ele>593.27</ele>
        <time>2016-10-18T14:08:12Z</time>
      </trkpt>
      <trkpt lat="43.62135" lon="6.50639">
        <ele>593.27</ele>
        <time>2016-10-18T14:08:20Z</time>
      </trkpt>
      <trkpt lat="43.6213" lon="6.5064">
        <ele>592.79</ele>
        <time>2016-10-18T14:08:24Z</time>
      </trkpt>
      <trkpt lat="43.62126" lon="6.50642">
        <ele>592.79</ele>
        <time>2016-10-18T14:08:29Z</time>
      </trkpt>
      <trkpt lat="43.62116" lon="6.50648">
        <ele>591.35</ele>
        <time>2016-10-18T14:08:40Z</time>
      </trkpt>
      <trkpt lat="43.6211" lon="6.50652">
        <ele>591.35</ele>
        <time>2016-10-18T14:08:46Z</time>
      </trkpt>
      <trkpt lat="43.62103" lon="6.50653">
        <ele>590.87</ele>
        <time>2016-10-18T14:08:53Z</time>
      </trkpt>
      <trkpt lat="43.62096" lon="6.50658">
        <ele>590.39</ele>
        <time>2016-10-18T14:09:00Z</time>
      </trkpt>
      <trkpt lat="43.62085" lon="6.50662">
        <ele>588.95</ele>
        <time>2016-10-18T14:09:12Z</time>
      </trkpt>
      <trkpt lat="43.62081" lon="6.50667">
        <ele>588.46</ele>
        <time>2016-10-18T14:09:17Z</time>
      </trkpt>
      <trkpt lat="43.6207" lon="6.50679">
        <ele>587.5</ele>
        <time>2016-10-18T14:09:30Z</time>
      </trkpt>
      <trkpt lat="43.62058" lon="6.50688">
        <ele>586.06</ele>
        <time>2016-10-18T14:09:43Z</time>
      </trkpt>
      <trkpt lat="43.62055" lon="6.50694">
        <ele>586.54</ele>
        <time>2016-10-18T14:09:48Z</time>
      </trkpt>
      <trkpt lat="43.62052" lon="6.50695">
        <ele>586.06</ele>
        <time>2016-10-18T14:09:51Z</time>
      </trkpt>
      <trkpt lat="43.62042" lon="6.50703">
        <ele>585.58</ele>
        <time>2016-10-18T14:10:03Z</time>
      </trkpt>
      <trkpt lat="43.62034" lon="6.50709">
        <ele>585.1</ele>
        <time>2016-10-18T14:10:12Z</time>
      </trkpt>
      <trkpt lat="43.62027" lon="6.50714">
        <ele>584.62</ele>
        <time>2016-10-18T14:10:19Z</time>
      </trkpt>
      <trkpt lat="43.62014" lon="6.50722">
        <ele>583.66</ele>
        <time>2016-10-18T14:10:34Z</time>
      </trkpt>
      <trkpt lat="43.62003" lon="6.50733">
        <ele>582.7</ele>
        <time>2016-10-18T14:10:47Z</time>
      </trkpt>
      <trkpt lat="43.62001" lon="6.50736">
        <ele>582.22</ele>
        <time>2016-10-18T14:10:50Z</time>
      </trkpt>
      <trkpt lat="43.61999" lon="6.5074">
        <ele>581.73</ele>
        <time>2016-10-18T14:10:54Z</time>
      </trkpt>
      <trkpt lat="43.61991" lon="6.50751">
        <ele>580.77</ele>
        <time>2016-10-18T14:11:05Z</time>
      </trkpt>
      <trkpt lat="43.61982" lon="6.50762">
        <ele>580.29</ele>
        <time>2016-10-18T14:11:16Z</time>
      </trkpt>
      <trkpt lat="43.61972" lon="6.50775">
        <ele>579.81</ele>
        <time>2016-10-18T14:11:28Z</time>
      </trkpt>
      <trkpt lat="43.61968" lon="6.50779">
        <ele>579.81</ele>
        <time>2016-10-18T14:11:33Z</time>
      </trkpt>
      <trkpt lat="43.61963" lon="6.50785">
        <ele>579.33</ele>
        <time>2016-10-18T14:11:38Z</time>
      </trkpt>
      <trkpt lat="43.61956" lon="6.508">
        <ele>578.85</ele>
        <time>2016-10-18T14:11:49Z</time>
      </trkpt>
      <trkpt lat="43.61956" lon="6.50801">
        <ele>578.85</ele>
        <time>2016-10-18T14:11:50Z</time>
      </trkpt>
      <trkpt lat="43.61954" lon="6.50803">
        <ele>578.85</ele>
        <time>2016-10-18T14:11:53Z</time>
      </trkpt>
      <trkpt lat="43.61948" lon="6.50822">
        <ele>577.89</ele>
        <time>2016-10-18T14:12:06Z</time>
      </trkpt>
      <trkpt lat="43.61944" lon="6.50827">
        <ele>577.89</ele>
        <time>2016-10-18T14:12:11Z</time>
      </trkpt>
      <trkpt lat="43.61941" lon="6.5083">
        <ele>577.89</ele>
        <time>2016-10-18T14:12:14Z</time>
      </trkpt>
      <trkpt lat="43.61932" lon="6.50835">
        <ele>577.89</ele>
        <time>2016-10-18T14:12:23Z</time>
      </trkpt>
      <trkpt lat="43.61928" lon="6.50837">
        <ele>577.89</ele>
        <time>2016-10-18T14:12:27Z</time>
      </trkpt>
      <trkpt lat="43.61918" lon="6.50843">
        <ele>577.41</ele>
        <time>2016-10-18T14:12:38Z</time>
      </trkpt>
      <trkpt lat="43.61914" lon="6.50846">
        <ele>577.41</ele>
        <time>2016-10-18T14:12:42Z</time>
      </trkpt>
      <trkpt lat="43.61906" lon="6.50848">
        <ele>577.41</ele>
        <time>2016-10-18T14:12:48Z</time>
      </trkpt>
      <trkpt lat="43.61904" lon="6.50851">
        <ele>577.41</ele>
        <time>2016-10-18T14:12:50Z</time>
      </trkpt>
      <trkpt lat="43.61898" lon="6.50853">
        <ele>577.41</ele>
        <time>2016-10-18T14:12:55Z</time>
      </trkpt>
      <trkpt lat="43.61894" lon="6.50854">
        <ele>576.93</ele>
        <time>2016-10-18T14:12:58Z</time>
      </trkpt>
      <trkpt lat="43.61886" lon="6.50857">
        <ele>576.45</ele>
        <time>2016-10-18T14:13:04Z</time>
      </trkpt>
      <trkpt lat="43.61881" lon="6.50859">
        <ele>576.45</ele>
        <time>2016-10-18T14:13:08Z</time>
      </trkpt>
      <trkpt lat="43.61874" lon="6.50862">
        <ele>576.45</ele>
        <time>2016-10-18T14:13:14Z</time>
      </trkpt>
      <trkpt lat="43.61868" lon="6.50866">
        <ele>576.45</ele>
        <time>2016-10-18T14:13:19Z</time>
      </trkpt>
      <trkpt lat="43.61865" lon="6.5087">
        <ele>575.97</ele>
        <time>2016-10-18T14:13:23Z</time>
      </trkpt>
      <trkpt lat="43.61857" lon="6.50879">
        <ele>575.49</ele>
        <time>2016-10-18T14:13:34Z</time>
      </trkpt>
      <trkpt lat="43.61853" lon="6.50885">
        <ele>575.01</ele>
        <time>2016-10-18T14:13:40Z</time>
      </trkpt>
      <trkpt lat="43.61851" lon="6.50887">
        <ele>575.01</ele>
        <time>2016-10-18T14:13:42Z</time>
      </trkpt>
      <trkpt lat="43.61847" lon="6.50888">
        <ele>575.01</ele>
        <time>2016-10-18T14:13:46Z</time>
      </trkpt>
      <trkpt lat="43.61841" lon="6.50891">
        <ele>575.01</ele>
        <time>2016-10-18T14:14:01Z</time>
      </trkpt>
      <trkpt lat="43.61841" lon="6.50891">
        <ele>575.01</ele>
        <time>2016-10-18T14:14:15Z</time>
      </trkpt>
      <trkpt lat="43.61842" lon="6.50894">
        <ele>574.53</ele>
        <time>2016-10-18T14:14:26Z</time>
      </trkpt>
      <trkpt lat="43.61842" lon="6.50894">
        <ele>574.53</ele>
        <time>2016-10-18T14:14:53Z</time>
      </trkpt>
      <trkpt lat="43.61843" lon="6.50894">
        <ele>574.53</ele>
        <time>2016-10-18T14:15:16Z</time>
      </trkpt>
      <trkpt lat="43.61843" lon="6.50894">
        <ele>574.53</ele>
        <time>2016-10-18T14:15:42Z</time>
      </trkpt>
      <trkpt lat="43.61842" lon="6.50894">
        <ele>574.04</ele>
        <time>2016-10-18T14:16:03Z</time>
      </trkpt>
      <trkpt lat="43.61843" lon="6.50895">
        <ele>574.04</ele>
        <time>2016-10-18T14:16:33Z</time>
      </trkpt>
      <trkpt lat="43.61844" lon="6.50895">
        <ele>574.04</ele>
        <time>2016-10-18T14:16:44Z</time>
      </trkpt>
      <trkpt lat="43.61844" lon="6.50895">
        <ele>574.04</ele>
        <time>2016-10-18T14:16:58Z</time>
      </trkpt>
      <trkpt lat="43.61845" lon="6.50895">
        <ele>574.04</ele>
        <time>2016-10-18T14:17:14Z</time>
      </trkpt>
      <trkpt lat="43.61844" lon="6.50895">
        <ele>574.04</ele>
        <time>2016-10-18T14:17:25Z</time>
      </trkpt>
      <trkpt lat="43.61835" lon="6.50902">
        <ele>573.56</ele>
        <time>2016-10-18T14:17:34Z</time>
      </trkpt>
      <trkpt lat="43.61821" lon="6.50918">
        <ele>573.08</ele>
        <time>2016-10-18T14:17:48Z</time>
      </trkpt>
      <trkpt lat="43.61806" lon="6.50924">
        <ele>572.12</ele>
        <time>2016-10-18T14:18:01Z</time>
      </trkpt>
      <trkpt lat="43.61792" lon="6.50928">
        <ele>571.64</ele>
        <time>2016-10-18T14:18:12Z</time>
      </trkpt>
      <trkpt lat="43.61787" lon="6.5093">
        <ele>571.16</ele>
        <time>2016-10-18T14:18:16Z</time>
      </trkpt>
      <trkpt lat="43.61786" lon="6.50935">
        <ele>571.16</ele>
        <time>2016-10-18T14:18:19Z</time>
      </trkpt>
      <trkpt lat="43.61785" lon="6.50946">
        <ele>570.68</ele>
        <time>2016-10-18T14:18:32Z</time>
      </trkpt>
      <trkpt lat="43.61775" lon="6.50951">
        <ele>570.68</ele>
        <time>2016-10-18T14:18:42Z</time>
      </trkpt>
      <trkpt lat="43.61775" lon="6.50952">
        <ele>570.68</ele>
        <time>2016-10-18T14:18:46Z</time>
      </trkpt>
      <trkpt lat="43.6177" lon="6.50955">
        <ele>570.68</ele>
        <time>2016-10-18T14:18:51Z</time>
      </trkpt>
      <trkpt lat="43.61754" lon="6.50954">
        <ele>571.16</ele>
        <time>2016-10-18T14:19:03Z</time>
      </trkpt>
      <trkpt lat="43.61735" lon="6.50944">
        <ele>570.68</ele>
        <time>2016-10-18T14:19:21Z</time>
      </trkpt>
      <trkpt lat="43.61729" lon="6.50936">
        <ele>570.2</ele>
        <time>2016-10-18T14:19:29Z</time>
      </trkpt>
      <trkpt lat="43.61729" lon="6.50934">
        <ele>570.2</ele>
        <time>2016-10-18T14:19:31Z</time>
      </trkpt>
      <trkpt lat="43.61725" lon="6.50932">
        <ele>570.2</ele>
        <time>2016-10-18T14:19:34Z</time>
      </trkpt>
      <trkpt lat="43.61721" lon="6.50928">
        <ele>569.72</ele>
        <time>2016-10-18T14:19:38Z</time>
      </trkpt>
      <trkpt lat="43.61714" lon="6.50915">
        <ele>569.72</ele>
        <time>2016-10-18T14:19:51Z</time>
      </trkpt>
      <trkpt lat="43.61711" lon="6.50911">
        <ele>569.72</ele>
        <time>2016-10-18T14:19:55Z</time>
      </trkpt>
      <trkpt lat="43.61702" lon="6.509">
        <ele>569.72</ele>
        <time>2016-10-18T14:20:09Z</time>
      </trkpt>
      <trkpt lat="43.61699" lon="6.50899">
        <ele>570.2</ele>
        <time>2016-10-18T14:20:21Z</time>
      </trkpt>
      <trkpt lat="43.61697" lon="6.509">
        <ele>570.2</ele>
        <time>2016-10-18T14:20:39Z</time>
      </trkpt>
      <trkpt lat="43.61694" lon="6.50896">
        <ele>570.68</ele>
        <time>2016-10-18T14:20:56Z</time>
      </trkpt>
      <trkpt lat="43.61684" lon="6.50881">
        <ele>571.64</ele>
        <time>2016-10-18T14:21:10Z</time>
      </trkpt>
      <trkpt lat="43.61675" lon="6.5087">
        <ele>570.68</ele>
        <time>2016-10-18T14:21:22Z</time>
      </trkpt>
      <trkpt lat="43.61663" lon="6.50854">
        <ele>569.72</ele>
        <time>2016-10-18T14:21:35Z</time>
      </trkpt>
      <trkpt lat="43.61661" lon="6.50851">
        <ele>569.24</ele>
        <time>2016-10-18T14:21:37Z</time>
      </trkpt>
      <trkpt lat="43.6165" lon="6.50834">
        <ele>567.32</ele>
        <time>2016-10-18T14:21:52Z</time>
      </trkpt>
      <trkpt lat="43.61649" lon="6.50832">
        <ele>567.32</ele>
        <time>2016-10-18T14:21:53Z</time>
      </trkpt>
      <trkpt lat="43.61644" lon="6.50828">
        <ele>567.32</ele>
        <time>2016-10-18T14:21:56Z</time>
      </trkpt>
      <trkpt lat="43.61626" lon="6.50821">
        <ele>567.32</ele>
        <time>2016-10-18T14:22:08Z</time>
      </trkpt>
      <trkpt lat="43.61608" lon="6.50821">
        <ele>567.32</ele>
        <time>2016-10-18T14:22:21Z</time>
      </trkpt>
      <trkpt lat="43.61592" lon="6.50822">
        <ele>566.83</ele>
        <time>2016-10-18T14:22:34Z</time>
      </trkpt>
      <trkpt lat="43.61579" lon="6.50821">
        <ele>566.35</ele>
        <time>2016-10-18T14:22:49Z</time>
      </trkpt>
      <trkpt lat="43.61562" lon="6.50817">
        <ele>566.35</ele>
        <time>2016-10-18T14:23:04Z</time>
      </trkpt>
      <trkpt lat="43.61554" lon="6.50813">
        <ele>566.35</ele>
        <time>2016-10-18T14:23:15Z</time>
      </trkpt>
      <trkpt lat="43.61553" lon="6.50812">
        <ele>566.35</ele>
        <time>2016-10-18T14:23:16Z</time>
      </trkpt>
      <trkpt lat="43.61546" lon="6.508">
        <ele>566.83</ele>
        <time>2016-10-18T14:23:28Z</time>
      </trkpt>
      <trkpt lat="43.61544" lon="6.50788">
        <ele>566.35</ele>
        <time>2016-10-18T14:23:36Z</time>
      </trkpt>
      <trkpt lat="43.61545" lon="6.50777">
        <ele>566.35</ele>
        <time>2016-10-18T14:23:43Z</time>
      </trkpt>
      <trkpt lat="43.61543" lon="6.50768">
        <ele>566.35</ele>
        <time>2016-10-18T14:23:50Z</time>
      </trkpt>
      <trkpt lat="43.61545" lon="6.50752">
        <ele>565.87</ele>
        <time>2016-10-18T14:24:03Z</time>
      </trkpt>
      <trkpt lat="43.61546" lon="6.50748">
        <ele>565.39</ele>
        <time>2016-10-18T14:24:07Z</time>
      </trkpt>
      <trkpt lat="43.61551" lon="6.50739">
        <ele>564.91</ele>
        <time>2016-10-18T14:24:13Z</time>
      </trkpt>
      <trkpt lat="43.61558" lon="6.50728">
        <ele>564.91</ele>
        <time>2016-10-18T14:24:22Z</time>
      </trkpt>
      <trkpt lat="43.61561" lon="6.50718">
        <ele>565.39</ele>
        <time>2016-10-18T14:24:29Z</time>
      </trkpt>
      <trkpt lat="43.61565" lon="6.50691">
        <ele>565.87</ele>
        <time>2016-10-18T14:24:45Z</time>
      </trkpt>
      <trkpt lat="43.61565" lon="6.50688">
        <ele>565.87</ele>
        <time>2016-10-18T14:24:47Z</time>
      </trkpt>
      <trkpt lat="43.61565" lon="6.50684">
        <ele>565.87</ele>
        <time>2016-10-18T14:24:49Z</time>
      </trkpt>
      <trkpt lat="43.61567" lon="6.50665">
        <ele>566.83</ele>
        <time>2016-10-18T14:25:02Z</time>
      </trkpt>
      <trkpt lat="43.61567" lon="6.50664">
        <ele>566.83</ele>
        <time>2016-10-18T14:25:03Z</time>
      </trkpt>
      <trkpt lat="43.61567" lon="6.5066">
        <ele>566.35</ele>
        <time>2016-10-18T14:25:05Z</time>
      </trkpt>
      <trkpt lat="43.61566" lon="6.50646">
        <ele>565.87</ele>
        <time>2016-10-18T14:25:15Z</time>
      </trkpt>
      <trkpt lat="43.61565" lon="6.50644">
        <ele>565.39</ele>
        <time>2016-10-18T14:25:17Z</time>
      </trkpt>
      <trkpt lat="43.61562" lon="6.50622">
        <ele>564.43</ele>
        <time>2016-10-18T14:25:30Z</time>
      </trkpt>
      <trkpt lat="43.6156" lon="6.50613">
        <ele>563.95</ele>
        <time>2016-10-18T14:25:38Z</time>
      </trkpt>
      <trkpt lat="43.61557" lon="6.506">
        <ele>564.43</ele>
        <time>2016-10-18T14:25:47Z</time>
      </trkpt>
      <trkpt lat="43.61559" lon="6.50586">
        <ele>564.43</ele>
        <time>2016-10-18T14:25:57Z</time>
      </trkpt>
      <trkpt lat="43.61561" lon="6.50574">
        <ele>563.47</ele>
        <time>2016-10-18T14:26:08Z</time>
      </trkpt>
      <trkpt lat="43.61562" lon="6.50569">
        <ele>563.47</ele>
        <time>2016-10-18T14:26:13Z</time>
      </trkpt>
      <trkpt lat="43.61568" lon="6.50555">
        <ele>562.99</ele>
        <time>2016-10-18T14:26:26Z</time>
      </trkpt>
      <trkpt lat="43.61565" lon="6.50547">
        <ele>562.99</ele>
        <time>2016-10-18T14:26:45Z</time>
      </trkpt>
      <trkpt lat="43.61564" lon="6.50545">
        <ele>562.99</ele>
        <time>2016-10-18T14:27:09Z</time>
      </trkpt>
      <trkpt lat="43.61564" lon="6.50544">
        <ele>562.99</ele>
        <time>2016-10-18T14:27:43Z</time>
      </trkpt>
      <trkpt lat="43.61564" lon="6.50544">
        <ele>562.99</ele>
        <time>2016-10-18T14:28:13Z</time>
      </trkpt>
      <trkpt lat="43.61568" lon="6.50536">
        <ele>564.43</ele>
        <time>2016-10-18T14:28:31Z</time>
      </trkpt>
      <trkpt lat="43.61575" lon="6.50525">
        <ele>566.35</ele>
        <time>2016-10-18T14:28:44Z</time>
      </trkpt>
      <trkpt lat="43.61581" lon="6.50505">
        <ele>569.24</ele>
        <time>2016-10-18T14:29:00Z</time>
      </trkpt>
      <trkpt lat="43.61578" lon="6.5049">
        <ele>572.12</ele>
        <time>2016-10-18T14:29:14Z</time>
      </trkpt>
      <trkpt lat="43.61576" lon="6.50469">
        <ele>574.04</ele>
        <time>2016-10-18T14:29:31Z</time>
      </trkpt>
      <trkpt lat="43.61576" lon="6.50454">
        <ele>575.97</ele>
        <time>2016-10-18T14:29:45Z</time>
      </trkpt>
      <trkpt lat="43.61577" lon="6.50445">
        <ele>577.41</ele>
        <time>2016-10-18T14:29:57Z</time>
      </trkpt>
      <trkpt lat="43.61579" lon="6.5044">
        <ele>579.81</ele>
        <time>2016-10-18T14:30:11Z</time>
      </trkpt>
      <trkpt lat="43.61573" lon="6.50421">
        <ele>581.73</ele>
        <time>2016-10-18T14:30:23Z</time>
      </trkpt>
      <trkpt lat="43.61569" lon="6.50409">
        <ele>583.18</ele>
        <time>2016-10-18T14:30:31Z</time>
      </trkpt>
      <trkpt lat="43.61565" lon="6.50395">
        <ele>583.66</ele>
        <time>2016-10-18T14:30:40Z</time>
      </trkpt>
      <trkpt lat="43.61563" lon="6.50386">
        <ele>584.14</ele>
        <time>2016-10-18T14:30:47Z</time>
      </trkpt>
      <trkpt lat="43.61563" lon="6.50372">
        <ele>584.14</ele>
        <time>2016-10-18T14:30:59Z</time>
      </trkpt>
      <trkpt lat="43.61562" lon="6.50373">
        <ele>584.14</ele>
        <time>2016-10-18T14:31:20Z</time>
      </trkpt>
      <trkpt lat="43.61562" lon="6.50374">
        <ele>584.14</ele>
        <time>2016-10-18T14:31:45Z</time>
      </trkpt>
      <trkpt lat="43.61561" lon="6.50373">
        <ele>584.14</ele>
        <time>2016-10-18T14:32:07Z</time>
      </trkpt>
      <trkpt lat="43.6156" lon="6.50371">
        <ele>584.14</ele>
        <time>2016-10-18T14:32:35Z</time>
      </trkpt>
      <trkpt lat="43.61557" lon="6.50371">
        <ele>584.14</ele>
        <time>2016-10-18T14:32:58Z</time>
      </trkpt>
      <trkpt lat="43.61557" lon="6.50371">
        <ele>584.14</ele>
        <time>2016-10-18T14:33:26Z</time>
      </trkpt>
      <trkpt lat="43.61557" lon="6.50371">
        <ele>584.14</ele>
        <time>2016-10-18T14:33:51Z</time>
      </trkpt>
      <trkpt lat="43.61557" lon="6.5037">
        <ele>584.14</ele>
        <time>2016-10-18T14:34:17Z</time>
      </trkpt>
      <trkpt lat="43.61556" lon="6.50367">
        <ele>584.14</ele>
        <time>2016-10-18T14:34:21Z</time>
      </trkpt>
      <trkpt lat="43.61555" lon="6.50361">
        <ele>584.14</ele>
        <time>2016-10-18T14:34:25Z</time>
      </trkpt>
      <trkpt lat="43.61552" lon="6.50356">
        <ele>584.14</ele>
        <time>2016-10-18T14:34:29Z</time>
      </trkpt>
      <trkpt lat="43.6155" lon="6.50348">
        <ele>584.14</ele>
        <time>2016-10-18T14:34:35Z</time>
      </trkpt>
      <trkpt lat="43.61549" lon="6.50344">
        <ele>584.14</ele>
        <time>2016-10-18T14:34:38Z</time>
      </trkpt>
      <trkpt lat="43.61546" lon="6.50334">
        <ele>583.66</ele>
        <time>2016-10-18T14:34:45Z</time>
      </trkpt>
      <trkpt lat="43.61545" lon="6.50327">
        <ele>583.18</ele>
        <time>2016-10-18T14:34:50Z</time>
      </trkpt>
      <trkpt lat="43.61542" lon="6.50319">
        <ele>583.18</ele>
        <time>2016-10-18T14:34:56Z</time>
      </trkpt>
      <trkpt lat="43.61539" lon="6.50309">
        <ele>582.22</ele>
        <time>2016-10-18T14:35:05Z</time>
      </trkpt>
      <trkpt lat="43.61537" lon="6.50306">
        <ele>581.73</ele>
        <time>2016-10-18T14:35:07Z</time>
      </trkpt>
      <trkpt lat="43.61529" lon="6.50289">
        <ele>579.81</ele>
        <time>2016-10-18T14:35:20Z</time>
      </trkpt>
      <trkpt lat="43.61526" lon="6.50281">
        <ele>579.33</ele>
        <time>2016-10-18T14:35:26Z</time>
      </trkpt>
      <trkpt lat="43.61527" lon="6.50275">
        <ele>579.33</ele>
        <time>2016-10-18T14:35:30Z</time>
      </trkpt>
      <trkpt lat="43.61529" lon="6.50267">
        <ele>579.81</ele>
        <time>2016-10-18T14:35:37Z</time>
      </trkpt>
      <trkpt lat="43.6153" lon="6.50261">
        <ele>580.29</ele>
        <time>2016-10-18T14:35:41Z</time>
      </trkpt>
      <trkpt lat="43.6153" lon="6.50248">
        <ele>581.73</ele>
        <time>2016-10-18T14:35:52Z</time>
      </trkpt>
      <trkpt lat="43.61531" lon="6.50231">
        <ele>581.73</ele>
        <time>2016-10-18T14:36:04Z</time>
      </trkpt>
      <trkpt lat="43.61531" lon="6.50222">
        <ele>580.77</ele>
        <time>2016-10-18T14:36:11Z</time>
      </trkpt>
      <trkpt lat="43.61533" lon="6.50203">
        <ele>579.81</ele>
        <time>2016-10-18T14:36:24Z</time>
      </trkpt>
      <trkpt lat="43.6154" lon="6.50189">
        <ele>579.33</ele>
        <time>2016-10-18T14:36:33Z</time>
      </trkpt>
      <trkpt lat="43.61542" lon="6.50182">
        <ele>579.33</ele>
        <time>2016-10-18T14:36:37Z</time>
      </trkpt>
      <trkpt lat="43.61543" lon="6.50178">
        <ele>578.85</ele>
        <time>2016-10-18T14:36:41Z</time>
      </trkpt>
      <trkpt lat="43.61547" lon="6.50159">
        <ele>578.37</ele>
        <time>2016-10-18T14:36:55Z</time>
      </trkpt>
      <trkpt lat="43.61553" lon="6.50145">
        <ele>576.93</ele>
        <time>2016-10-18T14:37:09Z</time>
      </trkpt>
      <trkpt lat="43.61554" lon="6.50143">
        <ele>576.93</ele>
        <time>2016-10-18T14:37:11Z</time>
      </trkpt>
      <trkpt lat="43.61567" lon="6.50126">
        <ele>576.45</ele>
        <time>2016-10-18T14:37:27Z</time>
      </trkpt>
      <trkpt lat="43.61577" lon="6.50117">
        <ele>574.53</ele>
        <time>2016-10-18T14:37:43Z</time>
      </trkpt>
      <trkpt lat="43.61585" lon="6.50108">
        <ele>574.04</ele>
        <time>2016-10-18T14:37:55Z</time>
      </trkpt>
      <trkpt lat="43.61591" lon="6.50099">
        <ele>573.08</ele>
        <time>2016-10-18T14:38:08Z</time>
      </trkpt>
      <trkpt lat="43.61598" lon="6.5009">
        <ele>572.6</ele>
        <time>2016-10-18T14:38:18Z</time>
      </trkpt>
      <trkpt lat="43.61608" lon="6.50079">
        <ele>572.6</ele>
        <time>2016-10-18T14:38:32Z</time>
      </trkpt>
      <trkpt lat="43.61619" lon="6.50065">
        <ele>571.16</ele>
        <time>2016-10-18T14:38:48Z</time>
      </trkpt>
      <trkpt lat="43.61627" lon="6.50055">
        <ele>569.24</ele>
        <time>2016-10-18T14:39:00Z</time>
      </trkpt>
      <trkpt lat="43.61633" lon="6.50047">
        <ele>568.28</ele>
        <time>2016-10-18T14:39:12Z</time>
      </trkpt>
      <trkpt lat="43.61634" lon="6.50041">
        <ele>567.8</ele>
        <time>2016-10-18T14:39:17Z</time>
      </trkpt>
      <trkpt lat="43.61635" lon="6.50037">
        <ele>567.8</ele>
        <time>2016-10-18T14:39:20Z</time>
      </trkpt>
      <trkpt lat="43.61636" lon="6.50014">
        <ele>567.32</ele>
        <time>2016-10-18T14:39:35Z</time>
      </trkpt>
      <trkpt lat="43.61637" lon="6.5">
        <ele>567.32</ele>
        <time>2016-10-18T14:39:45Z</time>
      </trkpt>
      <trkpt lat="43.61633" lon="6.49989">
        <ele>567.32</ele>
        <time>2016-10-18T14:39:54Z</time>
      </trkpt>
      <trkpt lat="43.61631" lon="6.49984">
        <ele>567.8</ele>
        <time>2016-10-18T14:40:10Z</time>
      </trkpt>
      <trkpt lat="43.61628" lon="6.49985">
        <ele>567.8</ele>
        <time>2016-10-18T14:40:39Z</time>
      </trkpt>
      <trkpt lat="43.61627" lon="6.49986">
        <ele>568.28</ele>
        <time>2016-10-18T14:41:08Z</time>
      </trkpt>
      <trkpt lat="43.61625" lon="6.49986">
        <ele>568.28</ele>
        <time>2016-10-18T14:41:29Z</time>
      </trkpt>
      <trkpt lat="43.61622" lon="6.49983">
        <ele>568.76</ele>
        <time>2016-10-18T14:41:50Z</time>
      </trkpt>
      <trkpt lat="43.61619" lon="6.49973">
        <ele>570.2</ele>
        <time>2016-10-18T14:42:01Z</time>
      </trkpt>
      <trkpt lat="43.61614" lon="6.49961">
        <ele>571.16</ele>
        <time>2016-10-18T14:42:13Z</time>
      </trkpt>
      <trkpt lat="43.61609" lon="6.49951">
        <ele>571.64</ele>
        <time>2016-10-18T14:42:22Z</time>
      </trkpt>
      <trkpt lat="43.61604" lon="6.49935">
        <ele>572.6</ele>
        <time>2016-10-18T14:42:37Z</time>
      </trkpt>
      <trkpt lat="43.61602" lon="6.4992">
        <ele>573.56</ele>
        <time>2016-10-18T14:42:50Z</time>
      </trkpt>
      <trkpt lat="43.61601" lon="6.49904">
        <ele>575.01</ele>
        <time>2016-10-18T14:43:05Z</time>
      </trkpt>
      <trkpt lat="43.61599" lon="6.49892">
        <ele>575.97</ele>
        <time>2016-10-18T14:43:19Z</time>
      </trkpt>
      <trkpt lat="43.61598" lon="6.49875">
        <ele>577.89</ele>
        <time>2016-10-18T14:43:33Z</time>
      </trkpt>
      <trkpt lat="43.61599" lon="6.49856">
        <ele>577.89</ele>
        <time>2016-10-18T14:43:49Z</time>
      </trkpt>
      <trkpt lat="43.61604" lon="6.49842">
        <ele>578.37</ele>
        <time>2016-10-18T14:44:03Z</time>
      </trkpt>
      <trkpt lat="43.6161" lon="6.4983">
        <ele>578.37</ele>
        <time>2016-10-18T14:44:15Z</time>
      </trkpt>
      <trkpt lat="43.61614" lon="6.49818">
        <ele>576.93</ele>
        <time>2016-10-18T14:44:27Z</time>
      </trkpt>
      <trkpt lat="43.61621" lon="6.49806">
        <ele>575.01</ele>
        <time>2016-10-18T14:44:40Z</time>
      </trkpt>
      <trkpt lat="43.61628" lon="6.49788">
        <ele>574.53</ele>
        <time>2016-10-18T14:44:55Z</time>
      </trkpt>
      <trkpt lat="43.61627" lon="6.49772">
        <ele>573.56</ele>
        <time>2016-10-18T14:45:12Z</time>
      </trkpt>
      <trkpt lat="43.61631" lon="6.49763">
        <ele>572.6</ele>
        <time>2016-10-18T14:45:27Z</time>
      </trkpt>
      <trkpt lat="43.6164" lon="6.49745">
        <ele>571.16</ele>
        <time>2016-10-18T14:45:43Z</time>
      </trkpt>
      <trkpt lat="43.61645" lon="6.49736">
        <ele>569.24</ele>
        <time>2016-10-18T14:45:57Z</time>
      </trkpt>
      <trkpt lat="43.61653" lon="6.49723">
        <ele>568.28</ele>
        <time>2016-10-18T14:46:11Z</time>
      </trkpt>
      <trkpt lat="43.61659" lon="6.49711">
        <ele>567.32</ele>
        <time>2016-10-18T14:46:24Z</time>
      </trkpt>
      <trkpt lat="43.61662" lon="6.49703">
        <ele>565.87</ele>
        <time>2016-10-18T14:46:41Z</time>
      </trkpt>
      <trkpt lat="43.61668" lon="6.49689">
        <ele>565.39</ele>
        <time>2016-10-18T14:46:53Z</time>
      </trkpt>
      <trkpt lat="43.6167" lon="6.49676">
        <ele>564.91</ele>
        <time>2016-10-18T14:47:05Z</time>
      </trkpt>
      <trkpt lat="43.61673" lon="6.49666">
        <ele>565.39</ele>
        <time>2016-10-18T14:47:17Z</time>
      </trkpt>
      <trkpt lat="43.61679" lon="6.49654">
        <ele>566.35</ele>
        <time>2016-10-18T14:47:31Z</time>
      </trkpt>
      <trkpt lat="43.61681" lon="6.49646">
        <ele>567.32</ele>
        <time>2016-10-18T14:47:42Z</time>
      </trkpt>
      <trkpt lat="43.61685" lon="6.49635">
        <ele>568.28</ele>
        <time>2016-10-18T14:47:53Z</time>
      </trkpt>
      <trkpt lat="43.61689" lon="6.49626">
        <ele>569.24</ele>
        <time>2016-10-18T14:48:03Z</time>
      </trkpt>
      <trkpt lat="43.61696" lon="6.49612">
        <ele>568.76</ele>
        <time>2016-10-18T14:48:16Z</time>
      </trkpt>
      <trkpt lat="43.61701" lon="6.49593">
        <ele>567.32</ele>
        <time>2016-10-18T14:48:30Z</time>
      </trkpt>
      <trkpt lat="43.61703" lon="6.49589">
        <ele>566.35</ele>
        <time>2016-10-18T14:48:47Z</time>
      </trkpt>
      <trkpt lat="43.61704" lon="6.49576">
        <ele>564.91</ele>
        <time>2016-10-18T14:48:57Z</time>
      </trkpt>
      <trkpt lat="43.61708" lon="6.49562">
        <ele>563.95</ele>
        <time>2016-10-18T14:49:08Z</time>
      </trkpt>
      <trkpt lat="43.6171" lon="6.49548">
        <ele>563.95</ele>
        <time>2016-10-18T14:49:22Z</time>
      </trkpt>
      <trkpt lat="43.61711" lon="6.49548">
        <ele>563.95</ele>
        <time>2016-10-18T14:49:32Z</time>
      </trkpt>
      <trkpt lat="43.61711" lon="6.49532">
        <ele>562.99</ele>
        <time>2016-10-18T14:49:44Z</time>
      </trkpt>
      <trkpt lat="43.61711" lon="6.49525">
        <ele>562.99</ele>
        <time>2016-10-18T14:49:49Z</time>
      </trkpt>
      <trkpt lat="43.61717" lon="6.49511">
        <ele>563.95</ele>
        <time>2016-10-18T14:50:03Z</time>
      </trkpt>
      <trkpt lat="43.61712" lon="6.49494">
        <ele>565.87</ele>
        <time>2016-10-18T14:50:16Z</time>
      </trkpt>
      <trkpt lat="43.61711" lon="6.49493">
        <ele>566.35</ele>
        <time>2016-10-18T14:50:18Z</time>
      </trkpt>
      <trkpt lat="43.61709" lon="6.49476">
        <ele>567.8</ele>
        <time>2016-10-18T14:50:31Z</time>
      </trkpt>
      <trkpt lat="43.61708" lon="6.49461">
        <ele>569.72</ele>
        <time>2016-10-18T14:50:43Z</time>
      </trkpt>
      <trkpt lat="43.61706" lon="6.49454">
        <ele>570.2</ele>
        <time>2016-10-18T14:50:47Z</time>
      </trkpt>
      <trkpt lat="43.61703" lon="6.49435">
        <ele>570.68</ele>
        <time>2016-10-18T14:51:02Z</time>
      </trkpt>
      <trkpt lat="43.61707" lon="6.49431">
        <ele>572.12</ele>
        <time>2016-10-18T14:51:14Z</time>
      </trkpt>
      <trkpt lat="43.61714" lon="6.49414">
        <ele>572.6</ele>
        <time>2016-10-18T14:51:27Z</time>
      </trkpt>
      <trkpt lat="43.61721" lon="6.49394">
        <ele>573.56</ele>
        <time>2016-10-18T14:51:41Z</time>
      </trkpt>
      <trkpt lat="43.61722" lon="6.49389">
        <ele>573.56</ele>
        <time>2016-10-18T14:51:44Z</time>
      </trkpt>
      <trkpt lat="43.61719" lon="6.49373">
        <ele>574.53</ele>
        <time>2016-10-18T14:51:57Z</time>
      </trkpt>
      <trkpt lat="43.61719" lon="6.49369">
        <ele>575.01</ele>
        <time>2016-10-18T14:52:12Z</time>
      </trkpt>
      <trkpt lat="43.61718" lon="6.49371">
        <ele>575.01</ele>
        <time>2016-10-18T14:52:37Z</time>
      </trkpt>
      <trkpt lat="43.61718" lon="6.4937">
        <ele>575.01</ele>
        <time>2016-10-18T14:53:04Z</time>
      </trkpt>
      <trkpt lat="43.61716" lon="6.4937">
        <ele>575.01</ele>
        <time>2016-10-18T14:53:29Z</time>
      </trkpt>
      <trkpt lat="43.61715" lon="6.4937">
        <ele>575.49</ele>
        <time>2016-10-18T14:54:00Z</time>
      </trkpt>
      <trkpt lat="43.61714" lon="6.4937">
        <ele>575.01</ele>
        <time>2016-10-18T14:54:30Z</time>
      </trkpt>
      <trkpt lat="43.61713" lon="6.49368">
        <ele>575.49</ele>
        <time>2016-10-18T14:54:50Z</time>
      </trkpt>
      <trkpt lat="43.61709" lon="6.49358">
        <ele>576.45</ele>
        <time>2016-10-18T14:55:00Z</time>
      </trkpt>
      <trkpt lat="43.6171" lon="6.49344">
        <ele>577.89</ele>
        <time>2016-10-18T14:55:14Z</time>
      </trkpt>
      <trkpt lat="43.6171" lon="6.49342">
        <ele>578.85</ele>
        <time>2016-10-18T14:55:25Z</time>
      </trkpt>
      <trkpt lat="43.61714" lon="6.49328">
        <ele>580.29</ele>
        <time>2016-10-18T14:55:37Z</time>
      </trkpt>
      <trkpt lat="43.6172" lon="6.49308">
        <ele>581.73</ele>
        <time>2016-10-18T14:55:49Z</time>
      </trkpt>
      <trkpt lat="43.61721" lon="6.49303">
        <ele>581.73</ele>
        <time>2016-10-18T14:55:52Z</time>
      </trkpt>
      <trkpt lat="43.61724" lon="6.49284">
        <ele>581.73</ele>
        <time>2016-10-18T14:56:06Z</time>
      </trkpt>
      <trkpt lat="43.61727" lon="6.49264">
        <ele>581.73</ele>
        <time>2016-10-18T14:56:19Z</time>
      </trkpt>
      <trkpt lat="43.61733" lon="6.49247">
        <ele>581.73</ele>
        <time>2016-10-18T14:56:32Z</time>
      </trkpt>
      <trkpt lat="43.61736" lon="6.49237">
        <ele>580.77</ele>
        <time>2016-10-18T14:56:44Z</time>
      </trkpt>
      <trkpt lat="43.6174" lon="6.4923">
        <ele>579.81</ele>
        <time>2016-10-18T14:56:56Z</time>
      </trkpt>
      <trkpt lat="43.61739" lon="6.49218">
        <ele>579.81</ele>
        <time>2016-10-18T14:57:07Z</time>
      </trkpt>
      <trkpt lat="43.6174" lon="6.49214">
        <ele>579.33</ele>
        <time>2016-10-18T14:57:25Z</time>
      </trkpt>
      <trkpt lat="43.61741" lon="6.4921">
        <ele>579.33</ele>
        <time>2016-10-18T14:57:40Z</time>
      </trkpt>
      <trkpt lat="43.61741" lon="6.49209">
        <ele>579.33</ele>
        <time>2016-10-18T14:58:04Z</time>
      </trkpt>
      <trkpt lat="43.6174" lon="6.49214">
        <ele>579.33</ele>
        <time>2016-10-18T14:58:16Z</time>
      </trkpt>
      <trkpt lat="43.6174" lon="6.49214">
        <ele>579.33</ele>
        <time>2016-10-18T14:58:33Z</time>
      </trkpt>
      <trkpt lat="43.6174" lon="6.49212">
        <ele>579.33</ele>
        <time>2016-10-18T14:58:54Z</time>
      </trkpt>
      <trkpt lat="43.6174" lon="6.49203">
        <ele>578.85</ele>
        <time>2016-10-18T14:59:03Z</time>
      </trkpt>
      <trkpt lat="43.61739" lon="6.49197">
        <ele>578.37</ele>
        <time>2016-10-18T14:59:15Z</time>
      </trkpt>
      <trkpt lat="43.61739" lon="6.49193">
        <ele>578.37</ele>
        <time>2016-10-18T14:59:30Z</time>
      </trkpt>
      <trkpt lat="43.61735" lon="6.4918">
        <ele>576.45</ele>
        <time>2016-10-18T14:59:42Z</time>
      </trkpt>
      <trkpt lat="43.61733" lon="6.49166">
        <ele>575.01</ele>
        <time>2016-10-18T14:59:55Z</time>
      </trkpt>
      <trkpt lat="43.61734" lon="6.49152">
        <ele>572.6</ele>
        <time>2016-10-18T15:00:09Z</time>
      </trkpt>
      <trkpt lat="43.61736" lon="6.49144">
        <ele>570.68</ele>
        <time>2016-10-18T15:00:22Z</time>
      </trkpt>
      <trkpt lat="43.61734" lon="6.49131">
        <ele>568.28</ele>
        <time>2016-10-18T15:00:34Z</time>
      </trkpt>
      <trkpt lat="43.61738" lon="6.49117">
        <ele>565.87</ele>
        <time>2016-10-18T15:00:50Z</time>
      </trkpt>
      <trkpt lat="43.61741" lon="6.49107">
        <ele>563.95</ele>
        <time>2016-10-18T15:01:05Z</time>
      </trkpt>
      <trkpt lat="43.61745" lon="6.491">
        <ele>562.03</ele>
        <time>2016-10-18T15:01:17Z</time>
      </trkpt>
      <trkpt lat="43.61747" lon="6.49089">
        <ele>560.59</ele>
        <time>2016-10-18T15:01:29Z</time>
      </trkpt>
      <trkpt lat="43.61748" lon="6.49077">
        <ele>558.66</ele>
        <time>2016-10-18T15:01:41Z</time>
      </trkpt>
      <trkpt lat="43.61751" lon="6.49062">
        <ele>556.26</ele>
        <time>2016-10-18T15:01:57Z</time>
      </trkpt>
      <trkpt lat="43.61756" lon="6.49042">
        <ele>553.38</ele>
        <time>2016-10-18T15:02:15Z</time>
      </trkpt>
      <trkpt lat="43.61758" lon="6.49026">
        <ele>551.93</ele>
        <time>2016-10-18T15:02:29Z</time>
      </trkpt>
      <trkpt lat="43.61761" lon="6.49014">
        <ele>550.97</ele>
        <time>2016-10-18T15:02:41Z</time>
      </trkpt>
      <trkpt lat="43.61763" lon="6.49001">
        <ele>550.49</ele>
        <time>2016-10-18T15:02:52Z</time>
      </trkpt>
      <trkpt lat="43.61757" lon="6.48986">
        <ele>550.97</ele>
        <time>2016-10-18T15:03:08Z</time>
      </trkpt>
      <trkpt lat="43.61746" lon="6.48986">
        <ele>550.01</ele>
        <time>2016-10-18T15:03:20Z</time>
      </trkpt>
      <trkpt lat="43.61736" lon="6.48984">
        <ele>549.05</ele>
        <time>2016-10-18T15:03:31Z</time>
      </trkpt>
      <trkpt lat="43.61727" lon="6.48983">
        <ele>548.09</ele>
        <time>2016-10-18T15:03:42Z</time>
      </trkpt>
      <trkpt lat="43.61716" lon="6.48982">
        <ele>547.13</ele>
        <time>2016-10-18T15:03:54Z</time>
      </trkpt>
      <trkpt lat="43.61714" lon="6.48981">
        <ele>546.65</ele>
        <time>2016-10-18T15:03:56Z</time>
      </trkpt>
      <trkpt lat="43.61703" lon="6.4898">
        <ele>546.17</ele>
        <time>2016-10-18T15:04:10Z</time>
      </trkpt>
      <trkpt lat="43.61694" lon="6.48976">
        <ele>544.72</ele>
        <time>2016-10-18T15:04:23Z</time>
      </trkpt>
      <trkpt lat="43.61682" lon="6.48972">
        <ele>544.24</ele>
        <time>2016-10-18T15:04:37Z</time>
      </trkpt>
      <trkpt lat="43.61673" lon="6.48969">
        <ele>543.28</ele>
        <time>2016-10-18T15:04:49Z</time>
      </trkpt>
      <trkpt lat="43.61663" lon="6.48964">
        <ele>542.32</ele>
        <time>2016-10-18T15:05:01Z</time>
      </trkpt>
      <trkpt lat="43.61652" lon="6.48958">
        <ele>540.4</ele>
        <time>2016-10-18T15:05:15Z</time>
      </trkpt>
      <trkpt lat="43.61651" lon="6.48958">
        <ele>540.4</ele>
        <time>2016-10-18T15:05:16Z</time>
      </trkpt>
      <trkpt lat="43.61636" lon="6.48951">
        <ele>538.96</ele>
        <time>2016-10-18T15:05:30Z</time>
      </trkpt>
      <trkpt lat="43.61625" lon="6.48945">
        <ele>538.48</ele>
        <time>2016-10-18T15:05:42Z</time>
      </trkpt>
      <trkpt lat="43.61622" lon="6.48949">
        <ele>538.48</ele>
        <time>2016-10-18T15:05:58Z</time>
      </trkpt>
      <trkpt lat="43.61619" lon="6.48951">
        <ele>538.48</ele>
        <time>2016-10-18T15:06:25Z</time>
      </trkpt>
      <trkpt lat="43.61619" lon="6.48953">
        <ele>538.48</ele>
        <time>2016-10-18T15:06:53Z</time>
      </trkpt>
      <trkpt lat="43.61618" lon="6.48953">
        <ele>538.48</ele>
        <time>2016-10-18T15:07:23Z</time>
      </trkpt>
      <trkpt lat="43.61619" lon="6.48953">
        <ele>538.48</ele>
        <time>2016-10-18T15:07:52Z</time>
      </trkpt>
      <trkpt lat="43.61619" lon="6.48953">
        <ele>537.99</ele>
        <time>2016-10-18T15:08:19Z</time>
      </trkpt>
      <trkpt lat="43.61619" lon="6.48953">
        <ele>537.99</ele>
        <time>2016-10-18T15:08:52Z</time>
      </trkpt>
      <trkpt lat="43.61619" lon="6.48953">
        <ele>537.99</ele>
        <time>2016-10-18T15:09:27Z</time>
      </trkpt>
      <trkpt lat="43.61615" lon="6.48948">
        <ele>537.99</ele>
        <time>2016-10-18T15:09:39Z</time>
      </trkpt>
      <trkpt lat="43.61603" lon="6.48944">
        <ele>537.99</ele>
        <time>2016-10-18T15:09:51Z</time>
      </trkpt>
      <trkpt lat="43.61591" lon="6.48939">
        <ele>537.99</ele>
        <time>2016-10-18T15:10:03Z</time>
      </trkpt>
      <trkpt lat="43.61588" lon="6.48938">
        <ele>537.99</ele>
        <time>2016-10-18T15:10:11Z</time>
      </trkpt>
      <trkpt lat="43.61577" lon="6.48935">
        <ele>536.55</ele>
        <time>2016-10-18T15:10:21Z</time>
      </trkpt>
      <trkpt lat="43.61566" lon="6.48933">
        <ele>535.11</ele>
        <time>2016-10-18T15:10:31Z</time>
      </trkpt>
      <trkpt lat="43.61561" lon="6.48933">
        <ele>535.11</ele>
        <time>2016-10-18T15:10:34Z</time>
      </trkpt>
      <trkpt lat="43.61553" lon="6.48932">
        <ele>533.67</ele>
        <time>2016-10-18T15:10:42Z</time>
      </trkpt>
      <trkpt lat="43.61547" lon="6.4893">
        <ele>532.23</ele>
        <time>2016-10-18T15:10:50Z</time>
      </trkpt>
      <trkpt lat="43.61538" lon="6.48922">
        <ele>529.82</ele>
        <time>2016-10-18T15:11:02Z</time>
      </trkpt>
      <trkpt lat="43.61531" lon="6.48915">
        <ele>527.42</ele>
        <time>2016-10-18T15:11:13Z</time>
      </trkpt>
      <trkpt lat="43.61523" lon="6.48907">
        <ele>524.54</ele>
        <time>2016-10-18T15:11:26Z</time>
      </trkpt>
      <trkpt lat="43.61515" lon="6.48902">
        <ele>523.09</ele>
        <time>2016-10-18T15:11:36Z</time>
      </trkpt>
      <trkpt lat="43.61507" lon="6.48897">
        <ele>522.13</ele>
        <time>2016-10-18T15:11:44Z</time>
      </trkpt>
      <trkpt lat="43.61497" lon="6.48886">
        <ele>519.73</ele>
        <time>2016-10-18T15:11:58Z</time>
      </trkpt>
      <trkpt lat="43.61491" lon="6.48878">
        <ele>518.29</ele>
        <time>2016-10-18T15:12:08Z</time>
      </trkpt>
      <trkpt lat="43.61481" lon="6.48869">
        <ele>516.85</ele>
        <time>2016-10-18T15:12:20Z</time>
      </trkpt>
      <trkpt lat="43.61472" lon="6.4886">
        <ele>514.92</ele>
        <time>2016-10-18T15:12:33Z</time>
      </trkpt>
      <trkpt lat="43.61463" lon="6.48853">
        <ele>512.52</ele>
        <time>2016-10-18T15:12:48Z</time>
      </trkpt>
      <trkpt lat="43.61459" lon="6.48843">
        <ele>511.56</ele>
        <time>2016-10-18T15:12:58Z</time>
      </trkpt>
      <trkpt lat="43.61458" lon="6.48831">
        <ele>509.64</ele>
        <time>2016-10-18T15:13:09Z</time>
      </trkpt>
      <trkpt lat="43.61455" lon="6.48819">
        <ele>507.23</ele>
        <time>2016-10-18T15:13:23Z</time>
      </trkpt>
      <trkpt lat="43.61453" lon="6.48816">
        <ele>506.27</ele>
        <time>2016-10-18T15:13:37Z</time>
      </trkpt>
      <trkpt lat="43.61452" lon="6.48815">
        <ele>506.27</ele>
        <time>2016-10-18T15:14:12Z</time>
      </trkpt>
      <trkpt lat="43.61451" lon="6.48813">
        <ele>506.27</ele>
        <time>2016-10-18T15:14:46Z</time>
      </trkpt>
      <trkpt lat="43.61451" lon="6.48814">
        <ele>506.27</ele>
        <time>2016-10-18T15:15:14Z</time>
      </trkpt>
      <trkpt lat="43.61452" lon="6.48817">
        <ele>506.27</ele>
        <time>2016-10-18T15:15:46Z</time>
      </trkpt>
      <trkpt lat="43.61451" lon="6.48818">
        <ele>505.79</ele>
        <time>2016-10-18T15:16:12Z</time>
      </trkpt>
      <trkpt lat="43.61451" lon="6.48818">
        <ele>505.79</ele>
        <time>2016-10-18T15:16:33Z</time>
      </trkpt>
      <trkpt lat="43.6145" lon="6.48818">
        <ele>505.79</ele>
        <time>2016-10-18T15:17:06Z</time>
      </trkpt>
      <trkpt lat="43.6145" lon="6.48818">
        <ele>509.64</ele>
        <time>2016-10-18T15:17:13Z</time>
      </trkpt>
      <trkpt lat="43.6145" lon="6.48818">
        <ele>508.19</ele>
        <time>2016-10-18T15:17:14Z</time>
      </trkpt>
      <trkpt lat="43.6145" lon="6.48818">
        <ele>504.35</ele>
        <time>2016-10-18T15:17:15Z</time>
      </trkpt>
      <trkpt lat="43.6145" lon="6.48818">
        <ele>507.23</ele>
        <time>2016-10-18T15:17:16Z</time>
      </trkpt>
      <trkpt lat="43.6145" lon="6.48818">
        <ele>506.27</ele>
        <time>2016-10-18T15:17:35Z</time>
      </trkpt>
      <trkpt lat="43.61445" lon="6.48813">
        <ele>503.87</ele>
        <time>2016-10-18T15:17:48Z</time>
      </trkpt>
      <trkpt lat="43.6144" lon="6.48811">
        <ele>502.43</ele>
        <time>2016-10-18T15:17:58Z</time>
      </trkpt>
      <trkpt lat="43.61434" lon="6.48808">
        <ele>501.46</ele>
        <time>2016-10-18T15:18:03Z</time>
      </trkpt>
      <trkpt lat="43.61424" lon="6.48802">
        <ele>500.02</ele>
        <time>2016-10-18T15:18:15Z</time>
      </trkpt>
      <trkpt lat="43.61416" lon="6.48793">
        <ele>498.1</ele>
        <time>2016-10-18T15:18:28Z</time>
      </trkpt>
      <trkpt lat="43.61408" lon="6.48786">
        <ele>496.66</ele>
        <time>2016-10-18T15:18:40Z</time>
      </trkpt>
      <trkpt lat="43.61401" lon="6.48781">
        <ele>495.22</ele>
        <time>2016-10-18T15:18:52Z</time>
      </trkpt>
      <trkpt lat="43.61393" lon="6.48772">
        <ele>492.33</ele>
        <time>2016-10-18T15:19:06Z</time>
      </trkpt>
      <trkpt lat="43.61383" lon="6.48776">
        <ele>490.41</ele>
        <time>2016-10-18T15:19:18Z</time>
      </trkpt>
      <trkpt lat="43.61378" lon="6.4878">
        <ele>488.97</ele>
        <time>2016-10-18T15:19:23Z</time>
      </trkpt>
      <trkpt lat="43.61369" lon="6.48782">
        <ele>488.01</ele>
        <time>2016-10-18T15:19:31Z</time>
      </trkpt>
      <trkpt lat="43.61365" lon="6.48782">
        <ele>487.05</ele>
        <time>2016-10-18T15:19:46Z</time>
      </trkpt>
      <trkpt lat="43.61365" lon="6.48782">
        <ele>487.05</ele>
        <time>2016-10-18T15:20:14Z</time>
      </trkpt>
      <trkpt lat="43.61365" lon="6.48782">
        <ele>487.05</ele>
        <time>2016-10-18T15:20:35Z</time>
      </trkpt>
      <trkpt lat="43.61365" lon="6.48783">
        <ele>487.05</ele>
        <time>2016-10-18T15:21:11Z</time>
      </trkpt>
      <trkpt lat="43.61366" lon="6.48784">
        <ele>487.05</ele>
        <time>2016-10-18T15:21:38Z</time>
      </trkpt>
      <trkpt lat="43.61367" lon="6.48786">
        <ele>487.05</ele>
        <time>2016-10-18T15:22:09Z</time>
      </trkpt>
      <trkpt lat="43.61364" lon="6.48786">
        <ele>487.05</ele>
        <time>2016-10-18T15:22:32Z</time>
      </trkpt>
      <trkpt lat="43.61358" lon="6.48776">
        <ele>487.05</ele>
        <time>2016-10-18T15:22:41Z</time>
      </trkpt>
      <trkpt lat="43.61355" lon="6.48768">
        <ele>487.05</ele>
        <time>2016-10-18T15:22:46Z</time>
      </trkpt>
      <trkpt lat="43.61347" lon="6.48753">
        <ele>487.05</ele>
        <time>2016-10-18T15:22:57Z</time>
      </trkpt>
      <trkpt lat="43.61341" lon="6.48748">
        <ele>487.05</ele>
        <time>2016-10-18T15:23:03Z</time>
      </trkpt>
      <trkpt lat="43.61338" lon="6.48746">
        <ele>487.05</ele>
        <time>2016-10-18T15:23:06Z</time>
      </trkpt>
      <trkpt lat="43.61337" lon="6.4874">
        <ele>487.05</ele>
        <time>2016-10-18T15:23:11Z</time>
      </trkpt>
      <trkpt lat="43.6133" lon="6.48729">
        <ele>486.56</ele>
        <time>2016-10-18T15:23:24Z</time>
      </trkpt>
      <trkpt lat="43.6133" lon="6.48729">
        <ele>486.56</ele>
        <time>2016-10-18T15:23:29Z</time>
      </trkpt>
      <trkpt lat="43.61327" lon="6.48726">
        <ele>486.08</ele>
        <time>2016-10-18T15:23:31Z</time>
      </trkpt>
      <trkpt lat="43.61312" lon="6.48718">
        <ele>486.08</ele>
        <time>2016-10-18T15:23:42Z</time>
      </trkpt>
      <trkpt lat="43.61308" lon="6.48716">
        <ele>486.08</ele>
        <time>2016-10-18T15:23:45Z</time>
      </trkpt>
      <trkpt lat="43.61304" lon="6.48716">
        <ele>486.08</ele>
        <time>2016-10-18T15:23:49Z</time>
      </trkpt>
      <trkpt lat="43.61296" lon="6.48715">
        <ele>486.08</ele>
        <time>2016-10-18T15:23:55Z</time>
      </trkpt>
      <trkpt lat="43.61286" lon="6.48712">
        <ele>486.08</ele>
        <time>2016-10-18T15:24:05Z</time>
      </trkpt>
      <trkpt lat="43.61272" lon="6.48708">
        <ele>486.56</ele>
        <time>2016-10-18T15:24:20Z</time>
      </trkpt>
      <trkpt lat="43.61271" lon="6.48707">
        <ele>486.56</ele>
        <time>2016-10-18T15:24:23Z</time>
      </trkpt>
      <trkpt lat="43.61267" lon="6.48705">
        <ele>486.56</ele>
        <time>2016-10-18T15:24:27Z</time>
      </trkpt>
      <trkpt lat="43.6126" lon="6.48704">
        <ele>486.56</ele>
        <time>2016-10-18T15:24:35Z</time>
      </trkpt>
      <trkpt lat="43.61246" lon="6.48701">
        <ele>487.53</ele>
        <time>2016-10-18T15:24:48Z</time>
      </trkpt>
      <trkpt lat="43.61234" lon="6.48709">
        <ele>486.56</ele>
        <time>2016-10-18T15:25:01Z</time>
      </trkpt>
      <trkpt lat="43.61223" lon="6.48715">
        <ele>486.08</ele>
        <time>2016-10-18T15:25:15Z</time>
      </trkpt>
      <trkpt lat="43.61216" lon="6.48709">
        <ele>484.64</ele>
        <time>2016-10-18T15:25:25Z</time>
      </trkpt>
      <trkpt lat="43.61211" lon="6.48703">
        <ele>483.68</ele>
        <time>2016-10-18T15:25:39Z</time>
      </trkpt>
      <trkpt lat="43.61208" lon="6.48701">
        <ele>483.2</ele>
        <time>2016-10-18T15:25:47Z</time>
      </trkpt>
      <trkpt lat="43.61202" lon="6.48695">
        <ele>482.72</ele>
        <time>2016-10-18T15:25:54Z</time>
      </trkpt>
      <trkpt lat="43.612" lon="6.48694">
        <ele>482.24</ele>
        <time>2016-10-18T15:25:56Z</time>
      </trkpt>
      <trkpt lat="43.61193" lon="6.48686">
        <ele>481.76</ele>
        <time>2016-10-18T15:26:05Z</time>
      </trkpt>
      <trkpt lat="43.61189" lon="6.48683">
        <ele>481.28</ele>
        <time>2016-10-18T15:26:10Z</time>
      </trkpt>
      <trkpt lat="43.61186" lon="6.48679">
        <ele>480.8</ele>
        <time>2016-10-18T15:26:15Z</time>
      </trkpt>
      <trkpt lat="43.61184" lon="6.48673">
        <ele>480.32</ele>
        <time>2016-10-18T15:26:21Z</time>
      </trkpt>
      <trkpt lat="43.61187" lon="6.48658">
        <ele>479.35</ele>
        <time>2016-10-18T15:26:33Z</time>
      </trkpt>
      <trkpt lat="43.61192" lon="6.48642">
        <ele>478.87</ele>
        <time>2016-10-18T15:26:47Z</time>
      </trkpt>
      <trkpt lat="43.61192" lon="6.48629">
        <ele>477.91</ele>
        <time>2016-10-18T15:26:56Z</time>
      </trkpt>
      <trkpt lat="43.61192" lon="6.48624">
        <ele>477.43</ele>
        <time>2016-10-18T15:27:06Z</time>
      </trkpt>
      <trkpt lat="43.61194" lon="6.4862">
        <ele>477.43</ele>
        <time>2016-10-18T15:27:09Z</time>
      </trkpt>
      <trkpt lat="43.612" lon="6.48599">
        <ele>476.47</ele>
        <time>2016-10-18T15:27:24Z</time>
      </trkpt>
      <trkpt lat="43.612" lon="6.48597">
        <ele>475.99</ele>
        <time>2016-10-18T15:27:26Z</time>
      </trkpt>
      <trkpt lat="43.61204" lon="6.48581">
        <ele>475.51</ele>
        <time>2016-10-18T15:27:40Z</time>
      </trkpt>
      <trkpt lat="43.61206" lon="6.48575">
        <ele>475.03</ele>
        <time>2016-10-18T15:27:43Z</time>
      </trkpt>
      <trkpt lat="43.61212" lon="6.48556">
        <ele>474.55</ele>
        <time>2016-10-18T15:27:57Z</time>
      </trkpt>
      <trkpt lat="43.6121" lon="6.48547">
        <ele>474.55</ele>
        <time>2016-10-18T15:28:03Z</time>
      </trkpt>
      <trkpt lat="43.61204" lon="6.48531">
        <ele>474.55</ele>
        <time>2016-10-18T15:28:16Z</time>
      </trkpt>
      <trkpt lat="43.61197" lon="6.48523">
        <ele>474.55</ele>
        <time>2016-10-18T15:28:26Z</time>
      </trkpt>
      <trkpt lat="43.61188" lon="6.48511">
        <ele>475.51</ele>
        <time>2016-10-18T15:28:38Z</time>
      </trkpt>
      <trkpt lat="43.61182" lon="6.485">
        <ele>475.03</ele>
        <time>2016-10-18T15:28:48Z</time>
      </trkpt>
      <trkpt lat="43.6118" lon="6.48487">
        <ele>475.03</ele>
        <time>2016-10-18T15:28:58Z</time>
      </trkpt>
      <trkpt lat="43.61177" lon="6.48477">
        <ele>474.55</ele>
        <time>2016-10-18T15:29:05Z</time>
      </trkpt>
      <trkpt lat="43.61173" lon="6.48473">
        <ele>474.07</ele>
        <time>2016-10-18T15:29:09Z</time>
      </trkpt>
      <trkpt lat="43.6117" lon="6.4847">
        <ele>473.59</ele>
        <time>2016-10-18T15:29:12Z</time>
      </trkpt>
      <trkpt lat="43.61156" lon="6.48453">
        <ele>472.14</ele>
        <time>2016-10-18T15:29:25Z</time>
      </trkpt>
      <trkpt lat="43.61155" lon="6.48452">
        <ele>472.14</ele>
        <time>2016-10-18T15:29:26Z</time>
      </trkpt>
      <trkpt lat="43.61151" lon="6.48437">
        <ele>471.66</ele>
        <time>2016-10-18T15:29:40Z</time>
      </trkpt>
      <trkpt lat="43.61142" lon="6.48421">
        <ele>471.18</ele>
        <time>2016-10-18T15:29:54Z</time>
      </trkpt>
      <trkpt lat="43.61138" lon="6.48418">
        <ele>471.18</ele>
        <time>2016-10-18T15:29:58Z</time>
      </trkpt>
      <trkpt lat="43.61135" lon="6.48416">
        <ele>470.7</ele>
        <time>2016-10-18T15:30:01Z</time>
      </trkpt>
      <trkpt lat="43.61129" lon="6.48416">
        <ele>470.7</ele>
        <time>2016-10-18T15:30:07Z</time>
      </trkpt>
      <trkpt lat="43.61127" lon="6.48416">
        <ele>470.7</ele>
        <time>2016-10-18T15:30:09Z</time>
      </trkpt>
      <trkpt lat="43.61121" lon="6.4842">
        <ele>470.22</ele>
        <time>2016-10-18T15:30:15Z</time>
      </trkpt>
      <trkpt lat="43.6112" lon="6.48422">
        <ele>470.22</ele>
        <time>2016-10-18T15:30:17Z</time>
      </trkpt>
      <trkpt lat="43.61116" lon="6.48424">
        <ele>470.22</ele>
        <time>2016-10-18T15:30:19Z</time>
      </trkpt>
      <trkpt lat="43.61101" lon="6.48424">
        <ele>470.22</ele>
        <time>2016-10-18T15:30:29Z</time>
      </trkpt>
      <trkpt lat="43.61089" lon="6.48425">
        <ele>470.7</ele>
        <time>2016-10-18T15:30:39Z</time>
      </trkpt>
      <trkpt lat="43.61077" lon="6.48423">
        <ele>471.18</ele>
        <time>2016-10-18T15:30:52Z</time>
      </trkpt>
      <trkpt lat="43.61074" lon="6.48422">
        <ele>471.18</ele>
        <time>2016-10-18T15:30:55Z</time>
      </trkpt>
      <trkpt lat="43.61061" lon="6.4842">
        <ele>471.18</ele>
        <time>2016-10-18T15:31:06Z</time>
      </trkpt>
      <trkpt lat="43.61049" lon="6.48418">
        <ele>471.18</ele>
        <time>2016-10-18T15:31:18Z</time>
      </trkpt>
      <trkpt lat="43.61042" lon="6.48413">
        <ele>471.18</ele>
        <time>2016-10-18T15:31:26Z</time>
      </trkpt>
      <trkpt lat="43.61038" lon="6.48411">
        <ele>471.18</ele>
        <time>2016-10-18T15:31:30Z</time>
      </trkpt>
      <trkpt lat="43.61031" lon="6.48409">
        <ele>471.18</ele>
        <time>2016-10-18T15:31:37Z</time>
      </trkpt>
      <trkpt lat="43.61027" lon="6.48407">
        <ele>471.18</ele>
        <time>2016-10-18T15:31:40Z</time>
      </trkpt>
      <trkpt lat="43.61021" lon="6.48401">
        <ele>470.7</ele>
        <time>2016-10-18T15:31:48Z</time>
      </trkpt>
      <trkpt lat="43.6102" lon="6.48395">
        <ele>470.22</ele>
        <time>2016-10-18T15:31:53Z</time>
      </trkpt>
      <trkpt lat="43.61025" lon="6.48383">
        <ele>468.78</ele>
        <time>2016-10-18T15:32:08Z</time>
      </trkpt>
      <trkpt lat="43.61032" lon="6.48373">
        <ele>468.3</ele>
        <time>2016-10-18T15:32:16Z</time>
      </trkpt>
      <trkpt lat="43.61036" lon="6.48353">
        <ele>467.82</ele>
        <time>2016-10-18T15:32:30Z</time>
      </trkpt>
      <trkpt lat="43.61033" lon="6.48337">
        <ele>467.82</ele>
        <time>2016-10-18T15:32:38Z</time>
      </trkpt>
      <trkpt lat="43.61028" lon="6.48314">
        <ele>467.82</ele>
        <time>2016-10-18T15:32:52Z</time>
      </trkpt>
      <trkpt lat="43.61028" lon="6.48312">
        <ele>467.82</ele>
        <time>2016-10-18T15:32:53Z</time>
      </trkpt>
      <trkpt lat="43.61032" lon="6.48287">
        <ele>467.82</ele>
        <time>2016-10-18T15:33:08Z</time>
      </trkpt>
      <trkpt lat="43.6104" lon="6.48271">
        <ele>468.3</ele>
        <time>2016-10-18T15:33:23Z</time>
      </trkpt>
      <trkpt lat="43.61042" lon="6.4827">
        <ele>468.3</ele>
        <time>2016-10-18T15:33:25Z</time>
      </trkpt>
      <trkpt lat="43.61049" lon="6.48269">
        <ele>469.26</ele>
        <time>2016-10-18T15:33:40Z</time>
      </trkpt>
      <trkpt lat="43.61052" lon="6.48268">
        <ele>468.78</ele>
        <time>2016-10-18T15:33:55Z</time>
      </trkpt>
      <trkpt lat="43.61055" lon="6.48267">
        <ele>468.78</ele>
        <time>2016-10-18T15:33:58Z</time>
      </trkpt>
      <trkpt lat="43.61065" lon="6.48271">
        <ele>469.26</ele>
        <time>2016-10-18T15:34:10Z</time>
      </trkpt>
      <trkpt lat="43.61076" lon="6.48271">
        <ele>469.26</ele>
        <time>2016-10-18T15:34:26Z</time>
      </trkpt>
      <trkpt lat="43.61078" lon="6.48269">
        <ele>469.26</ele>
        <time>2016-10-18T15:34:43Z</time>
      </trkpt>
      <trkpt lat="43.61077" lon="6.48271">
        <ele>469.26</ele>
        <time>2016-10-18T15:35:00Z</time>
      </trkpt>
      <trkpt lat="43.61077" lon="6.48272">
        <ele>469.26</ele>
        <time>2016-10-18T15:35:24Z</time>
      </trkpt>
      <trkpt lat="43.61077" lon="6.48271">
        <ele>468.78</ele>
        <time>2016-10-18T15:35:31Z</time>
      </trkpt>
      <trkpt lat="43.61077" lon="6.48273">
        <ele>469.26</ele>
        <time>2016-10-18T15:35:33Z</time>
      </trkpt>
      <trkpt lat="43.61077" lon="6.48277">
        <ele>468.78</ele>
        <time>2016-10-18T15:35:48Z</time>
      </trkpt>
      <trkpt lat="43.61078" lon="6.48278">
        <ele>469.26</ele>
        <time>2016-10-18T15:36:08Z</time>
      </trkpt>
      <trkpt lat="43.61076" lon="6.48277">
        <ele>465.9</ele>
        <time>2016-10-18T15:36:18Z</time>
      </trkpt>
      <trkpt lat="43.61076" lon="6.48277">
        <ele>471.18</ele>
        <time>2016-10-18T15:36:19Z</time>
      </trkpt>
      <trkpt lat="43.61076" lon="6.48277">
        <ele>467.82</ele>
        <time>2016-10-18T15:36:24Z</time>
      </trkpt>
      <trkpt lat="43.61076" lon="6.48278">
        <ele>471.66</ele>
        <time>2016-10-18T15:36:30Z</time>
      </trkpt>
      <trkpt lat="43.61076" lon="6.48278">
        <ele>466.86</ele>
        <time>2016-10-18T15:36:33Z</time>
      </trkpt>
      <trkpt lat="43.61076" lon="6.48278">
        <ele>466.86</ele>
        <time>2016-10-18T15:36:34Z</time>
      </trkpt>
    </trkseg>
  </trk>
</gpx>